<?xml version="1.0" encoding="utf-8"?>
<gpx version="1.1" creator="com.bodunov.GalileoPro/v5.4.1" xmlns:xsi="http://www.w3.org/2001/XMLSchema-instance" xmlns="http://www.topografix.com/GPX/1/1" xmlns:gom="https://gurumaps.app/gpx/v3" xsi:schemaLocation="http://www.topografix.com/GPX/1/1 http://www.topografix.com/GPX/1/1/gpx.xsd https://gurumaps.app/gpx/v3 https://gurumaps.app/gpx/v3/schema.xsd">
 <trk>
  <name>20260421GRUPPA5</name>
  <type>TrackStyle_FFD60AC8</type>
  <extensions>
   <gom:time>2026-04-20T19:41:56.000Z</gom:time>
  </extensions>
  <trkseg>
   <trkpt lat="59.0894914812" lon="29.9764387425"><ele>91.739</ele><time>2026-04-20T19:41:56.000Z</time></trkpt>
   <trkpt lat="59.0894894695" lon="29.9763418477"><ele>85.409</ele><time>2026-04-20T19:42:33.000Z</time></trkpt>
   <trkpt lat="59.0894589594" lon="29.9763284367"><ele>83.019</ele><time>2026-04-20T19:43:39.000Z</time></trkpt>
   <trkpt lat="59.0895042217" lon="29.9763029557"><ele>83.039</ele><time>2026-04-20T19:43:59.000Z</time></trkpt>
   <trkpt lat="59.0894957559" lon="29.9762732"><ele>82.269</ele><time>2026-04-20T19:44:31.000Z</time></trkpt>
   <trkpt lat="59.0895072391" lon="29.9762721103"><ele>80.579</ele><time>2026-04-20T19:45:06.000Z</time></trkpt>
   <trkpt lat="59.0894907268" lon="29.9762592022"><ele>79.589</ele><time>2026-04-20T19:45:49.000Z</time></trkpt>
   <trkpt lat="59.0895132741" lon="29.9762394209"><ele>81.959</ele><time>2026-04-20T19:46:39.000Z</time></trkpt>
   <trkpt lat="59.0894687662" lon="29.9763115891"><ele>80.649</ele><time>2026-04-20T19:47:39.000Z</time></trkpt>
   <trkpt lat="59.0894758908" lon="29.9762850184"><ele>78.129</ele><time>2026-04-20T19:48:24.000Z</time></trkpt>
   <trkpt lat="59.0894786569" lon="29.9762818333"><ele>82.809</ele><time>2026-04-20T19:49:10.000Z</time></trkpt>
   <trkpt lat="59.0894977676" lon="29.9762618006"><ele>84.009</ele><time>2026-04-20T19:49:53.000Z</time></trkpt>
   <trkpt lat="59.0894932414" lon="29.9762830068"><ele>84.019</ele><time>2026-04-20T19:50:40.000Z</time></trkpt>
   <trkpt lat="59.0894848595" lon="29.9762907181"><ele>82.409</ele><time>2026-04-20T19:51:19.000Z</time></trkpt>
   <trkpt lat="59.0895051437" lon="29.9762667459"><ele>80.589</ele><time>2026-04-20T19:51:56.000Z</time></trkpt>
   <trkpt lat="59.0894544332" lon="29.9762663268"><ele>79.369</ele><time>2026-04-20T19:52:49.000Z</time></trkpt>
   <trkpt lat="59.0894781539" lon="29.9762524128"><ele>76.259</ele><time>2026-04-20T19:53:54.000Z</time></trkpt>
   <trkpt lat="59.0894892181" lon="29.9762363196"><ele>76.599</ele><time>2026-04-20T19:54:28.000Z</time></trkpt>
   <trkpt lat="59.0894871226" lon="29.9763016984"><ele>78.309</ele><time>2026-04-20T19:54:47.000Z</time></trkpt>
   <trkpt lat="59.0894831831" lon="29.9763184622"><ele>79.929</ele><time>2026-04-20T19:55:04.000Z</time></trkpt>
   <trkpt lat="59.0894777348" lon="29.9762876168"><ele>80.209</ele><time>2026-04-20T19:55:22.000Z</time></trkpt>
   <trkpt lat="59.0895027129" lon="29.9762035463"><ele>73.629</ele><time>2026-04-20T20:00:27.000Z</time></trkpt>
   <trkpt lat="59.0894978514" lon="29.97623984"><ele>82.299</ele><time>2026-04-20T20:00:46.000Z</time></trkpt>
   <trkpt lat="59.0894335622" lon="29.9762244173"><ele>75.919</ele><time>2026-04-20T20:01:22.000Z</time></trkpt>
   <trkpt lat="59.0894675927" lon="29.9762752954"><ele>80.589</ele><time>2026-04-20T20:02:06.000Z</time></trkpt>
   <trkpt lat="59.0894877093" lon="29.9762839288"><ele>81.579</ele><time>2026-04-20T20:02:39.000Z</time></trkpt>
   <trkpt lat="59.0895102566" lon="29.9762942385"><ele>83.499</ele><time>2026-04-20T20:03:06.000Z</time></trkpt>
   <trkpt lat="59.0895113463" lon="29.9763001059"><ele>81.689</ele><time>2026-04-20T20:03:29.000Z</time></trkpt>
   <trkpt lat="59.089489721" lon="29.9762431927"><ele>81.339</ele><time>2026-04-20T20:03:53.000Z</time></trkpt>
   <trkpt lat="59.0894813391" lon="29.9763026204"><ele>81.219</ele><time>2026-04-20T20:04:27.000Z</time></trkpt>
   <trkpt lat="59.0894849433" lon="29.9763374892"><ele>79.079</ele><time>2026-04-20T20:04:49.000Z</time></trkpt>
   <trkpt lat="59.0894882122" lon="29.9763301131"><ele>79.789</ele><time>2026-04-20T20:05:13.000Z</time></trkpt>
   <trkpt lat="59.0894910621" lon="29.9762669973"><ele>81.959</ele><time>2026-04-20T20:05:38.000Z</time></trkpt>
   <trkpt lat="59.0894877093" lon="29.9762749602"><ele>79.339</ele><time>2026-04-20T20:06:03.000Z</time></trkpt>
   <trkpt lat="59.089510089" lon="29.9762851861"><ele>82.059</ele><time>2026-04-20T20:06:37.000Z</time></trkpt>
   <trkpt lat="59.089528613" lon="29.97623984"><ele>82.469</ele><time>2026-04-20T20:06:58.000Z</time></trkpt>
   <trkpt lat="59.0895569438" lon="29.9762390018"><ele>81.789</ele><time>2026-04-20T20:07:13.000Z</time></trkpt>
   <trkpt lat="59.0895708578" lon="29.9762760498"><ele>79.499</ele><time>2026-04-20T20:07:35.000Z</time></trkpt>
   <trkpt lat="59.0895845203" lon="29.9762358167"><ele>80.549</ele><time>2026-04-20T20:08:05.000Z</time></trkpt>
   <trkpt lat="59.0895640684" lon="29.9762578611"><ele>80.669</ele><time>2026-04-20T20:08:26.000Z</time></trkpt>
   <trkpt lat="59.0895232486" lon="29.9763270956"><ele>80.579</ele><time>2026-04-20T20:08:46.000Z</time></trkpt>
   <trkpt lat="59.089509167" lon="29.9762553465"><ele>80.749</ele><time>2026-04-20T20:09:03.000Z</time></trkpt>
   <trkpt lat="59.0895061495" lon="29.9762366549"><ele>79.669</ele><time>2026-04-20T20:09:08.000Z</time></trkpt>
   <trkpt lat="59.0895432813" lon="29.9762715236"><ele>79.249</ele><time>2026-04-20T20:09:12.000Z</time></trkpt>
   <trkpt lat="59.0895627273" lon="29.9762812466"><ele>79.239</ele><time>2026-04-20T20:09:13.000Z</time></trkpt>
   <trkpt lat="59.0895886274" lon="29.9762880359"><ele>79.559</ele><time>2026-04-20T20:09:14.000Z</time></trkpt>
   <trkpt lat="59.0902716687" lon="29.9762135208"><ele>78.239</ele><time>2026-04-20T20:09:31.000Z</time></trkpt>
   <trkpt lat="59.09073611" lon="29.9761238344"><ele>76.969</ele><time>2026-04-20T20:09:42.000Z</time></trkpt>
   <trkpt lat="59.0909050891" lon="29.9760380876"><ele>77.369</ele><time>2026-04-20T20:09:46.000Z</time></trkpt>
   <trkpt lat="59.0916490669" lon="29.9759470601"><ele>76.059</ele><time>2026-04-20T20:10:01.000Z</time></trkpt>
   <trkpt lat="59.0924505444" lon="29.9758093454"><ele>76.449</ele><time>2026-04-20T20:10:17.000Z</time></trkpt>
   <trkpt lat="59.0931194203" lon="29.9758126144"><ele>76.169</ele><time>2026-04-20T20:10:34.000Z</time></trkpt>
   <trkpt lat="59.0931481702" lon="29.9757947609"><ele>75.889</ele><time>2026-04-20T20:10:35.000Z</time></trkpt>
   <trkpt lat="59.0931562169" lon="29.9757515941"><ele>76.119</ele><time>2026-04-20T20:10:36.000Z</time></trkpt>
   <trkpt lat="59.0931599887" lon="29.9756976985"><ele>76.119</ele><time>2026-04-20T20:10:37.000Z</time></trkpt>
   <trkpt lat="59.093164012" lon="29.9756207526"><ele>76.419</ele><time>2026-04-20T20:10:38.000Z</time></trkpt>
   <trkpt lat="59.0931652693" lon="29.9755319883"><ele>76.549</ele><time>2026-04-20T20:10:39.000Z</time></trkpt>
   <trkpt lat="59.093164934" lon="29.9754432239"><ele>76.639</ele><time>2026-04-20T20:10:40.000Z</time></trkpt>
   <trkpt lat="59.093255291" lon="29.9741933145"><ele>77.839</ele><time>2026-04-20T20:10:55.000Z</time></trkpt>
   <trkpt lat="59.0933589751" lon="29.9730656971"><ele>78.239</ele><time>2026-04-20T20:11:06.000Z</time></trkpt>
   <trkpt lat="59.0935156329" lon="29.9711490911"><ele>78.619</ele><time>2026-04-20T20:11:20.000Z</time></trkpt>
   <trkpt lat="59.0937188102" lon="29.9688858096"><ele>78.239</ele><time>2026-04-20T20:11:35.000Z</time></trkpt>
   <trkpt lat="59.0938213209" lon="29.9678417597"><ele>78.609</ele><time>2026-04-20T20:11:45.000Z</time></trkpt>
   <trkpt lat="59.0939957483" lon="29.9660511338"><ele>79.009</ele><time>2026-04-20T20:11:58.000Z</time></trkpt>
   <trkpt lat="59.0941449462" lon="29.9643107154"><ele>79.169</ele><time>2026-04-20T20:12:13.000Z</time></trkpt>
   <trkpt lat="59.0942952337" lon="29.9626281321"><ele>79.639</ele><time>2026-04-20T20:12:26.000Z</time></trkpt>
   <trkpt lat="59.0945070444" lon="29.9602147308"><ele>79.059</ele><time>2026-04-20T20:12:44.000Z</time></trkpt>
   <trkpt lat="59.0946565775" lon="29.958609261"><ele>79.209</ele><time>2026-04-20T20:12:57.000Z</time></trkpt>
   <trkpt lat="59.094784653" lon="29.9570272606"><ele>79.249</ele><time>2026-04-20T20:13:11.000Z</time></trkpt>
   <trkpt lat="59.0949933624" lon="29.9548153602"><ele>80.449</ele><time>2026-04-20T20:13:28.000Z</time></trkpt>
   <trkpt lat="59.0951485114" lon="29.9529672344"><ele>80.909</ele><time>2026-04-20T20:13:44.000Z</time></trkpt>
   <trkpt lat="59.0952259602" lon="29.9521489092"><ele>81.319</ele><time>2026-04-20T20:13:53.000Z</time></trkpt>
   <trkpt lat="59.0953232741" lon="29.9509548232"><ele>81.539</ele><time>2026-04-20T20:14:04.000Z</time></trkpt>
   <trkpt lat="59.0954881462" lon="29.9490460962"><ele>81.429</ele><time>2026-04-20T20:14:18.000Z</time></trkpt>
   <trkpt lat="59.0956281239" lon="29.9473236151"><ele>82.549</ele><time>2026-04-20T20:14:31.000Z</time></trkpt>
   <trkpt lat="59.095826775" lon="29.9451834638"><ele>82.719</ele><time>2026-04-20T20:14:47.000Z</time></trkpt>
   <trkpt lat="59.0959285313" lon="29.9441306968"><ele>83.229</ele><time>2026-04-20T20:14:57.000Z</time></trkpt>
   <trkpt lat="59.0960804114" lon="29.942464123"><ele>82.889</ele><time>2026-04-20T20:15:09.000Z</time></trkpt>
   <trkpt lat="59.0962333812" lon="29.9407921009"><ele>83.429</ele><time>2026-04-20T20:15:21.000Z</time></trkpt>
   <trkpt lat="59.0963550864" lon="29.9396079056"><ele>83.559</ele><time>2026-04-20T20:15:31.000Z</time></trkpt>
   <trkpt lat="59.0965327827" lon="29.937649893"><ele>82.419</ele><time>2026-04-20T20:15:45.000Z</time></trkpt>
   <trkpt lat="59.0967323559" lon="29.9354635574"><ele>83.339</ele><time>2026-04-20T20:15:59.000Z</time></trkpt>
   <trkpt lat="59.096947184" lon="29.9330952507"><ele>82.549</ele><time>2026-04-20T20:16:16.000Z</time></trkpt>
   <trkpt lat="59.0969975593" lon="29.9320905119"><ele>83.699</ele><time>2026-04-20T20:16:26.000Z</time></trkpt>
   <trkpt lat="59.0969594216" lon="29.9317473568"><ele>83.419</ele><time>2026-04-20T20:16:29.000Z</time></trkpt>
   <trkpt lat="59.0969371258" lon="29.9316344526"><ele>83.649</ele><time>2026-04-20T20:16:30.000Z</time></trkpt>
   <trkpt lat="59.0969122315" lon="29.9315278348"><ele>83.719</ele><time>2026-04-20T20:16:31.000Z</time></trkpt>
   <trkpt lat="59.096490538" lon="29.9299102951"><ele>83.609</ele><time>2026-04-20T20:16:43.000Z</time></trkpt>
   <trkpt lat="59.0961648172" lon="29.9287046422"><ele>83.449</ele><time>2026-04-20T20:16:53.000Z</time></trkpt>
   <trkpt lat="59.0956450554" lon="29.9267939873"><ele>83.079</ele><time>2026-04-20T20:17:09.000Z</time></trkpt>
   <trkpt lat="59.0952192547" lon="29.9251646292"><ele>83.309</ele><time>2026-04-20T20:17:25.000Z</time></trkpt>
   <trkpt lat="59.0946766103" lon="29.9231515475"><ele>83.349</ele><time>2026-04-20T20:17:43.000Z</time></trkpt>
   <trkpt lat="59.0941416772" lon="29.9211305868"><ele>82.909</ele><time>2026-04-20T20:17:58.000Z</time></trkpt>
   <trkpt lat="59.0936863722" lon="29.9194265459"><ele>83.319</ele><time>2026-04-20T20:18:09.000Z</time></trkpt>
   <trkpt lat="59.0932482502" lon="29.9176488281"><ele>83.639</ele><time>2026-04-20T20:18:23.000Z</time></trkpt>
   <trkpt lat="59.093235845" lon="29.9175500892"><ele>84.019</ele><time>2026-04-20T20:18:24.000Z</time></trkpt>
   <trkpt lat="59.0932308158" lon="29.9174593132"><ele>84.319</ele><time>2026-04-20T20:18:25.000Z</time></trkpt>
   <trkpt lat="59.093236264" lon="29.9173757456"><ele>84.469</ele><time>2026-04-20T20:18:26.000Z</time></trkpt>
   <trkpt lat="59.0932561292" lon="29.9172931839"><ele>84.709</ele><time>2026-04-20T20:18:27.000Z</time></trkpt>
   <trkpt lat="59.0932772516" lon="29.9172102869"><ele>84.509</ele><time>2026-04-20T20:18:28.000Z</time></trkpt>
   <trkpt lat="59.0933322368" lon="29.9171643541"><ele>84.259</ele><time>2026-04-20T20:18:29.000Z</time></trkpt>
   <trkpt lat="59.0934138766" lon="29.9171557207"><ele>84.519</ele><time>2026-04-20T20:18:30.000Z</time></trkpt>
   <trkpt lat="59.0935241824" lon="29.9171480932"><ele>84.959</ele><time>2026-04-20T20:18:31.000Z</time></trkpt>
   <trkpt lat="59.0945767818" lon="29.9170763441"><ele>84.689</ele><time>2026-04-20T20:18:38.000Z</time></trkpt>
   <trkpt lat="59.096560443" lon="29.9169214465"><ele>84.199</ele><time>2026-04-20T20:18:48.000Z</time></trkpt>
   <trkpt lat="59.0985431822" lon="29.9167506233"><ele>83.939</ele><time>2026-04-20T20:18:59.000Z</time></trkpt>
   <trkpt lat="59.1016910898" lon="29.916487683"><ele>82.409</ele><time>2026-04-20T20:19:17.000Z</time></trkpt>
   <trkpt lat="59.1045895519" lon="29.9162415065"><ele>81.159</ele><time>2026-04-20T20:19:33.000Z</time></trkpt>
   <trkpt lat="59.1075049455" lon="29.9159561027"><ele>81.969</ele><time>2026-04-20T20:19:49.000Z</time></trkpt>
   <trkpt lat="59.1108399371" lon="29.9155380972"><ele>82.519</ele><time>2026-04-20T20:20:07.000Z</time></trkpt>
   <trkpt lat="59.1140831469" lon="29.91514683"><ele>81.509</ele><time>2026-04-20T20:20:23.000Z</time></trkpt>
   <trkpt lat="59.1164129807" lon="29.9148626834"><ele>81.629</ele><time>2026-04-20T20:20:33.000Z</time></trkpt>
   <trkpt lat="59.1217401831" lon="29.9142055422"><ele>83.229</ele><time>2026-04-20T20:20:54.000Z</time></trkpt>
   <trkpt lat="59.1260117686" lon="29.9136799969"><ele>84.869</ele><time>2026-04-20T20:21:11.000Z</time></trkpt>
   <trkpt lat="59.129924441" lon="29.9132764083"><ele>86.259</ele><time>2026-04-20T20:21:29.000Z</time></trkpt>
   <trkpt lat="59.1312573312" lon="29.9132456467"><ele>86.639</ele><time>2026-04-20T20:21:37.000Z</time></trkpt>
   <trkpt lat="59.1316619257" lon="29.913183453"><ele>86.889</ele><time>2026-04-20T20:21:41.000Z</time></trkpt>
   <trkpt lat="59.1317160728" lon="29.9131241091"><ele>86.749</ele><time>2026-04-20T20:21:42.000Z</time></trkpt>
   <trkpt lat="59.1317390392" lon="29.9130342551"><ele>86.689</ele><time>2026-04-20T20:21:43.000Z</time></trkpt>
   <trkpt lat="59.1317021588" lon="29.9127685487"><ele>87.029</ele><time>2026-04-20T20:21:45.000Z</time></trkpt>
   <trkpt lat="59.1316445751" lon="29.9126664572"><ele>86.319</ele><time>2026-04-20T20:21:46.000Z</time></trkpt>
   <trkpt lat="59.1315565652" lon="29.9126423173"><ele>85.769</ele><time>2026-04-20T20:21:47.000Z</time></trkpt>
   <trkpt lat="59.1314569881" lon="29.9126626015"><ele>85.149</ele><time>2026-04-20T20:21:48.000Z</time></trkpt>
   <trkpt lat="59.1313399768" lon="29.9127055168"><ele>85.579</ele><time>2026-04-20T20:21:49.000Z</time></trkpt>
   <trkpt lat="59.1304797421" lon="29.9129039165"><ele>85.639</ele><time>2026-04-20T20:21:54.000Z</time></trkpt>
   <trkpt lat="59.1280469785" lon="29.9133461457"><ele>84.979</ele><time>2026-04-20T20:22:05.000Z</time></trkpt>
   <trkpt lat="59.1241924765" lon="29.9137491476"><ele>83.939</ele><time>2026-04-20T20:22:20.000Z</time></trkpt>
   <trkpt lat="59.1202531496" lon="29.9142247368"><ele>82.709</ele><time>2026-04-20T20:22:35.000Z</time></trkpt>
   <trkpt lat="59.1162877551" lon="29.9146935366"><ele>83.109</ele><time>2026-04-20T20:22:49.000Z</time></trkpt>
   <trkpt lat="59.1126427168" lon="29.9151540384"><ele>82.469</ele><time>2026-04-20T20:23:02.000Z</time></trkpt>
   <trkpt lat="59.1099429896" lon="29.9154847883"><ele>83.599</ele><time>2026-04-20T20:23:13.000Z</time></trkpt>
   <trkpt lat="59.1077920256" lon="29.9157436215"><ele>82.879</ele><time>2026-04-20T20:23:24.000Z</time></trkpt>
   <trkpt lat="59.1045476424" lon="29.9160916381"><ele>82.459</ele><time>2026-04-20T20:23:42.000Z</time></trkpt>
   <trkpt lat="59.1017163193" lon="29.9163822387"><ele>84.699</ele><time>2026-04-20T20:23:57.000Z</time></trkpt>
   <trkpt lat="59.0964858441" lon="29.9168385495"><ele>88.079</ele><time>2026-04-20T20:24:25.000Z</time></trkpt>
   <trkpt lat="59.0915038923" lon="29.9171422258"><ele>88.079</ele><time>2026-04-20T20:24:50.000Z</time></trkpt>
   <trkpt lat="59.0882648735" lon="29.917337608"><ele>89.459</ele><time>2026-04-20T20:25:04.000Z</time></trkpt>
   <trkpt lat="59.0852899684" lon="29.9177994509"><ele>91.299</ele><time>2026-04-20T20:25:16.000Z</time></trkpt>
   <trkpt lat="59.0816178566" lon="29.9181038816"><ele>91.789</ele><time>2026-04-20T20:25:30.000Z</time></trkpt>
   <trkpt lat="59.0782528578" lon="29.918419125"><ele>92.659</ele><time>2026-04-20T20:25:41.000Z</time></trkpt>
   <trkpt lat="59.07279012" lon="29.9188740108"><ele>94.599</ele><time>2026-04-20T20:25:58.000Z</time></trkpt>
   <trkpt lat="59.0688098895" lon="29.9193118815"><ele>95.569</ele><time>2026-04-20T20:26:11.000Z</time></trkpt>
   <trkpt lat="59.0663457776" lon="29.9203601223"><ele>92.619</ele><time>2026-04-20T20:26:19.000Z</time></trkpt>
   <trkpt lat="59.0625856558" lon="29.9221479822"><ele>91.689</ele><time>2026-04-20T20:26:31.000Z</time></trkpt>
   <trkpt lat="59.0553413445" lon="29.925590346"><ele>88.319</ele><time>2026-04-20T20:26:54.000Z</time></trkpt>
   <trkpt lat="59.0478409661" lon="29.9291075602"><ele>87.109</ele><time>2026-04-20T20:27:18.000Z</time></trkpt>
   <trkpt lat="59.0410831405" lon="29.9322987184"><ele>86.799</ele><time>2026-04-20T20:27:40.000Z</time></trkpt>
   <trkpt lat="59.0349132216" lon="29.9352522496"><ele>85.859</ele><time>2026-04-20T20:28:01.000Z</time></trkpt>
   <trkpt lat="59.0323081261" lon="29.9372429516"><ele>84.909</ele><time>2026-04-20T20:28:11.000Z</time></trkpt>
   <trkpt lat="59.0301776139" lon="29.9399154377"><ele>84.159</ele><time>2026-04-20T20:28:20.000Z</time></trkpt>
   <trkpt lat="59.0282694737" lon="29.9434539419"><ele>84.019</ele><time>2026-04-20T20:28:29.000Z</time></trkpt>
   <trkpt lat="59.0266258663" lon="29.9468706571"><ele>87.189</ele><time>2026-04-20T20:28:38.000Z</time></trkpt>
   <trkpt lat="59.0252934789" lon="29.9496582266"><ele>90.389</ele><time>2026-04-20T20:28:47.000Z</time></trkpt>
   <trkpt lat="59.0241513608" lon="29.9514734954"><ele>90.359</ele><time>2026-04-20T20:28:55.000Z</time></trkpt>
   <trkpt lat="59.022632057" lon="29.9534779437"><ele>88.649</ele><time>2026-04-20T20:29:07.000Z</time></trkpt>
   <trkpt lat="59.0220009835" lon="29.9541042395"><ele>87.179</ele><time>2026-04-20T20:29:12.000Z</time></trkpt>
   <trkpt lat="59.0218740815" lon="29.9541640863"><ele>87.329</ele><time>2026-04-20T20:29:13.000Z</time></trkpt>
   <trkpt lat="59.0217471795" lon="29.9541923333"><ele>87.009</ele><time>2026-04-20T20:29:14.000Z</time></trkpt>
   <trkpt lat="59.0216150807" lon="29.9542056606"><ele>86.969</ele><time>2026-04-20T20:29:15.000Z</time></trkpt>
   <trkpt lat="59.0214891845" lon="29.9541296367"><ele>86.889</ele><time>2026-04-20T20:29:16.000Z</time></trkpt>
   <trkpt lat="59.0213763641" lon="29.9540194147"><ele>86.639</ele><time>2026-04-20T20:29:17.000Z</time></trkpt>
   <trkpt lat="59.0212815648" lon="29.9538822867"><ele>86.929</ele><time>2026-04-20T20:29:18.000Z</time></trkpt>
   <trkpt lat="59.0211984163" lon="29.9536867369"><ele>85.409</ele><time>2026-04-20T20:29:19.000Z</time></trkpt>
   <trkpt lat="59.0211234821" lon="29.9534336873"><ele>84.559</ele><time>2026-04-20T20:29:20.000Z</time></trkpt>
   <trkpt lat="59.0210543314" lon="29.9531974014"><ele>84.639</ele><time>2026-04-20T20:29:21.000Z</time></trkpt>
   <trkpt lat="59.021018876" lon="29.9529171106"><ele>84.469</ele><time>2026-04-20T20:29:22.000Z</time></trkpt>
   <trkpt lat="59.0210223125" lon="29.9520647548"><ele>86.979</ele><time>2026-04-20T20:29:25.000Z</time></trkpt>
   <trkpt lat="59.0210457819" lon="29.9517955281"><ele>87.709</ele><time>2026-04-20T20:29:26.000Z</time></trkpt>
   <trkpt lat="59.0210890325" lon="29.9515669536"><ele>87.199</ele><time>2026-04-20T20:29:27.000Z</time></trkpt>
   <trkpt lat="59.021166146" lon="29.951376433"><ele>86.599</ele><time>2026-04-20T20:29:28.000Z</time></trkpt>
   <trkpt lat="59.0212832412" lon="29.9512749281"><ele>85.659</ele><time>2026-04-20T20:29:29.000Z</time></trkpt>
   <trkpt lat="59.0214072095" lon="29.9511968088"><ele>85.109</ele><time>2026-04-20T20:29:30.000Z</time></trkpt>
   <trkpt lat="59.0215590896" lon="29.9511424102"><ele>85.929</ele><time>2026-04-20T20:29:31.000Z</time></trkpt>
   <trkpt lat="59.0217145739" lon="29.9511386384"><ele>83.619</ele><time>2026-04-20T20:29:32.000Z</time></trkpt>
   <trkpt lat="59.0218861515" lon="29.9511362076"><ele>83.599</ele><time>2026-04-20T20:29:33.000Z</time></trkpt>
   <trkpt lat="59.0232728535" lon="29.9513460905"><ele>82.829</ele><time>2026-04-20T20:29:40.000Z</time></trkpt>
   <trkpt lat="59.0253492186" lon="29.9521825206"><ele>81.359</ele><time>2026-04-20T20:29:51.000Z</time></trkpt>
   <trkpt lat="59.0271255115" lon="29.9538452387"><ele>80.749</ele><time>2026-04-20T20:30:02.000Z</time></trkpt>
   <trkpt lat="59.0286978727" lon="29.9559265491"><ele>79.229</ele><time>2026-04-20T20:30:13.000Z</time></trkpt>
   <trkpt lat="59.0295119232" lon="29.9575770296"><ele>78.699</ele><time>2026-04-20T20:30:21.000Z</time></trkpt>
   <trkpt lat="59.0295604544" lon="29.9578296602"><ele>78.539</ele><time>2026-04-20T20:30:22.000Z</time></trkpt>
   <trkpt lat="59.0295652321" lon="29.9580982164"><ele>78.309</ele><time>2026-04-20T20:30:23.000Z</time></trkpt>
   <trkpt lat="59.0295406731" lon="29.9588774819"><ele>77.969</ele><time>2026-04-20T20:30:26.000Z</time></trkpt>
   <trkpt lat="59.0295600353" lon="29.9591343873"><ele>76.379</ele><time>2026-04-20T20:30:27.000Z</time></trkpt>
   <trkpt lat="59.0296025315" lon="29.9593703378"><ele>75.219</ele><time>2026-04-20T20:30:28.000Z</time></trkpt>
   <trkpt lat="59.0296691677" lon="29.9596108985"><ele>74.079</ele><time>2026-04-20T20:30:29.000Z</time></trkpt>
   <trkpt lat="59.0297521485" lon="29.9598600924"><ele>74.419</ele><time>2026-04-20T20:30:30.000Z</time></trkpt>
   <trkpt lat="59.0302251393" lon="29.9614464514"><ele>75.159</ele><time>2026-04-20T20:30:36.000Z</time></trkpt>
   <trkpt lat="59.0302710721" lon="29.9617072124"><ele>75.139</ele><time>2026-04-20T20:30:37.000Z</time></trkpt>
   <trkpt lat="59.0303084554" lon="29.9619680573"><ele>74.779</ele><time>2026-04-20T20:30:38.000Z</time></trkpt>
   <trkpt lat="59.0303264765" lon="29.9622494378"><ele>75.239</ele><time>2026-04-20T20:30:39.000Z</time></trkpt>
   <trkpt lat="59.0303182622" lon="29.9625269626"><ele>75.709</ele><time>2026-04-20T20:30:40.000Z</time></trkpt>
   <trkpt lat="59.0303036777" lon="29.9630566988"><ele>74.889</ele><time>2026-04-20T20:30:42.000Z</time></trkpt>
   <trkpt lat="59.0303366186" lon="29.9633259256"><ele>75.039</ele><time>2026-04-20T20:30:43.000Z</time></trkpt>
   <trkpt lat="59.0303851498" lon="29.9635988403"><ele>75.039</ele><time>2026-04-20T20:30:44.000Z</time></trkpt>
   <trkpt lat="59.0307085237" lon="29.9661369644"><ele>75.969</ele><time>2026-04-20T20:30:53.000Z</time></trkpt>
   <trkpt lat="59.0308557099" lon="29.967209429"><ele>75.889</ele><time>2026-04-20T20:30:57.000Z</time></trkpt>
   <trkpt lat="59.0309243577" lon="29.9675115966"><ele>76.579</ele><time>2026-04-20T20:30:58.000Z</time></trkpt>
   <trkpt lat="59.0318429304" lon="29.9704620265"><ele>75.769</ele><time>2026-04-20T20:31:08.000Z</time></trkpt>
   <trkpt lat="59.032357244" lon="29.9731453251"><ele>76.919</ele><time>2026-04-20T20:31:17.000Z</time></trkpt>
   <trkpt lat="59.0330933427" lon="29.9747566622"><ele>74.509</ele><time>2026-04-20T20:31:24.000Z</time></trkpt>
   <trkpt lat="59.0334214104" lon="29.9753229436"><ele>73.799</ele><time>2026-04-20T20:31:27.000Z</time></trkpt>
   <trkpt lat="59.0335604662" lon="29.9754461576"><ele>73.649</ele><time>2026-04-20T20:31:28.000Z</time></trkpt>
   <trkpt lat="59.0346438272" lon="29.9767190334"><ele>75.409</ele><time>2026-04-20T20:31:36.000Z</time></trkpt>
   <trkpt lat="59.0352050794" lon="29.9783316277"><ele>74.139</ele><time>2026-04-20T20:31:42.000Z</time></trkpt>
   <trkpt lat="59.0352540297" lon="29.978630694"><ele>74.329</ele><time>2026-04-20T20:31:43.000Z</time></trkpt>
   <trkpt lat="59.035280768" lon="29.9789422494"><ele>74.299</ele><time>2026-04-20T20:31:44.000Z</time></trkpt>
   <trkpt lat="59.035294682" lon="29.9792650365"><ele>73.989</ele><time>2026-04-20T20:31:45.000Z</time></trkpt>
   <trkpt lat="59.0353057461" lon="29.9795770109"><ele>73.939</ele><time>2026-04-20T20:31:46.000Z</time></trkpt>
   <trkpt lat="59.0353822729" lon="29.9804492318"><ele>73.999</ele><time>2026-04-20T20:31:49.000Z</time></trkpt>
   <trkpt lat="59.0354104361" lon="29.980701527"><ele>73.869</ele><time>2026-04-20T20:31:50.000Z</time></trkpt>
   <trkpt lat="59.0354642479" lon="29.9809352145"><ele>74.229</ele><time>2026-04-20T20:31:51.000Z</time></trkpt>
   <trkpt lat="59.0355693569" lon="29.9811336141"><ele>74.319</ele><time>2026-04-20T20:31:52.000Z</time></trkpt>
   <trkpt lat="59.0356868712" lon="29.9813377135"><ele>74.839</ele><time>2026-04-20T20:31:53.000Z</time></trkpt>
   <trkpt lat="59.0365988223" lon="29.9832950555"><ele>75.009</ele><time>2026-04-20T20:32:01.000Z</time></trkpt>
   <trkpt lat="59.0368687196" lon="29.9839981296"><ele>75.259</ele><time>2026-04-20T20:32:04.000Z</time></trkpt>
   <trkpt lat="59.0369204359" lon="29.9842455633"><ele>75.209</ele><time>2026-04-20T20:32:05.000Z</time></trkpt>
   <trkpt lat="59.036956981" lon="29.9844999541"><ele>74.189</ele><time>2026-04-20T20:32:06.000Z</time></trkpt>
   <trkpt lat="59.0369466713" lon="29.984771863"><ele>73.839</ele><time>2026-04-20T20:32:07.000Z</time></trkpt>
   <trkpt lat="59.0369184243" lon="29.9850528244"><ele>74.119</ele><time>2026-04-20T20:32:08.000Z</time></trkpt>
   <trkpt lat="59.0370243715" lon="29.9874671478"><ele>75.089</ele><time>2026-04-20T20:32:16.000Z</time></trkpt>
   <trkpt lat="59.0376480689" lon="29.989666643"><ele>74.869</ele><time>2026-04-20T20:32:24.000Z</time></trkpt>
   <trkpt lat="59.0385127461" lon="29.9926297296"><ele>76.829</ele><time>2026-04-20T20:32:34.000Z</time></trkpt>
   <trkpt lat="59.0395571312" lon="29.9959419225"><ele>78.939</ele><time>2026-04-20T20:32:45.000Z</time></trkpt>
   <trkpt lat="59.0398331473" lon="29.9965762649"><ele>80.259</ele><time>2026-04-20T20:32:48.000Z</time></trkpt>
   <trkpt lat="59.0399011245" lon="29.9968141433"><ele>79.199</ele><time>2026-04-20T20:32:49.000Z</time></trkpt>
   <trkpt lat="59.0399451295" lon="29.9970679474"><ele>78.069</ele><time>2026-04-20T20:32:50.000Z</time></trkpt>
   <trkpt lat="59.0399676768" lon="29.9973411974"><ele>78.039</ele><time>2026-04-20T20:32:51.000Z</time></trkpt>
   <trkpt lat="59.039958792" lon="29.9976157047"><ele>77.669</ele><time>2026-04-20T20:32:52.000Z</time></trkpt>
   <trkpt lat="59.0399366638" lon="29.9978996836"><ele>76.789</ele><time>2026-04-20T20:32:53.000Z</time></trkpt>
   <trkpt lat="59.0398982747" lon="29.9981757835"><ele>76.519</ele><time>2026-04-20T20:32:54.000Z</time></trkpt>
   <trkpt lat="59.0394425506" lon="30.0013642595"><ele>75.449</ele><time>2026-04-20T20:33:04.000Z</time></trkpt>
   <trkpt lat="59.0389475154" lon="30.0053847231"><ele>74.709</ele><time>2026-04-20T20:33:17.000Z</time></trkpt>
   <trkpt lat="59.0388651213" lon="30.0061836023"><ele>74.889</ele><time>2026-04-20T20:33:20.000Z</time></trkpt>
   <trkpt lat="59.0388581643" lon="30.0066917971"><ele>74.319</ele><time>2026-04-20T20:33:22.000Z</time></trkpt>
   <trkpt lat="59.0388695637" lon="30.0069596827"><ele>74.439</ele><time>2026-04-20T20:33:23.000Z</time></trkpt>
   <trkpt lat="59.0389008282" lon="30.0072276522"><ele>74.319</ele><time>2026-04-20T20:33:24.000Z</time></trkpt>
   <trkpt lat="59.0392705539" lon="30.009959985"><ele>72.209</ele><time>2026-04-20T20:33:33.000Z</time></trkpt>
   <trkpt lat="59.0393362681" lon="30.0102269486"><ele>72.059</ele><time>2026-04-20T20:33:34.000Z</time></trkpt>
   <trkpt lat="59.0394185783" lon="30.0104524218"><ele>72.439</ele><time>2026-04-20T20:33:35.000Z</time></trkpt>
   <trkpt lat="59.0403282663" lon="30.0124990311"><ele>71.899</ele><time>2026-04-20T20:33:44.000Z</time></trkpt>
   <trkpt lat="59.0407396501" lon="30.0133948889"><ele>73.449</ele><time>2026-04-20T20:33:50.000Z</time></trkpt>
   <trkpt lat="59.0407932105" lon="30.0134460185"><ele>72.079</ele><time>2026-04-20T20:33:51.000Z</time></trkpt>
   <trkpt lat="59.0408535602" lon="30.0134585076"><ele>72.739</ele><time>2026-04-20T20:33:52.000Z</time></trkpt>
   <trkpt lat="59.0409179332" lon="30.0134217948"><ele>75.249</ele><time>2026-04-20T20:33:53.000Z</time></trkpt>
   <trkpt lat="59.0409864133" lon="30.0133734312"><ele>74.859</ele><time>2026-04-20T20:33:54.000Z</time></trkpt>
   <trkpt lat="59.0417443888" lon="30.0130449445"><ele>74.329</ele><time>2026-04-20T20:34:01.000Z</time></trkpt>
   <trkpt lat="59.0432816299" lon="30.0124735501"><ele>75.419</ele><time>2026-04-20T20:34:12.000Z</time></trkpt>
   <trkpt lat="59.0458280521" lon="30.0116215297"><ele>76.279</ele><time>2026-04-20T20:34:30.000Z</time></trkpt>
   <trkpt lat="59.0481129589" lon="30.0109073915"><ele>77.319</ele><time>2026-04-20T20:34:45.000Z</time></trkpt>
   <trkpt lat="59.0499986356" lon="30.0103142042"><ele>75.569</ele><time>2026-04-20T20:34:58.000Z</time></trkpt>
   <trkpt lat="59.0517277384" lon="30.0097074382"><ele>77.219</ele><time>2026-04-20T20:35:09.000Z</time></trkpt>
   <trkpt lat="59.0536339508" lon="30.0090618641"><ele>75.849</ele><time>2026-04-20T20:35:22.000Z</time></trkpt>
   <trkpt lat="59.0550230837" lon="30.0086040445"><ele>78.609</ele><time>2026-04-20T20:35:32.000Z</time></trkpt>
   <trkpt lat="59.0568113627" lon="30.0080427085"><ele>76.909</ele><time>2026-04-20T20:35:44.000Z</time></trkpt>
   <trkpt lat="59.0582905172" lon="30.0075917621"><ele>76.099</ele><time>2026-04-20T20:35:55.000Z</time></trkpt>
   <trkpt lat="59.059920462" lon="30.0070567452"><ele>75.209</ele><time>2026-04-20T20:36:07.000Z</time></trkpt>
   <trkpt lat="59.0610628316" lon="30.006601524"><ele>76.289</ele><time>2026-04-20T20:36:18.000Z</time></trkpt>
   <trkpt lat="59.0611229299" lon="30.0065980874"><ele>76.139</ele><time>2026-04-20T20:36:19.000Z</time></trkpt>
   <trkpt lat="59.0611744786" lon="30.006598758"><ele>75.719</ele><time>2026-04-20T20:36:20.000Z</time></trkpt>
   <trkpt lat="59.0612267817" lon="30.0066358898"><ele>75.249</ele><time>2026-04-20T20:36:21.000Z</time></trkpt>
   <trkpt lat="59.0612533523" lon="30.0066911266"><ele>75.069</ele><time>2026-04-20T20:36:22.000Z</time></trkpt>
   <trkpt lat="59.0612722116" lon="30.006738652"><ele>73.279</ele><time>2026-04-20T20:36:23.000Z</time></trkpt>
   <trkpt lat="59.0613009615" lon="30.0067899492"><ele>72.329</ele><time>2026-04-20T20:36:24.000Z</time></trkpt>
   <trkpt lat="59.0613106845" lon="30.0068342057"><ele>71.209</ele><time>2026-04-20T20:36:25.000Z</time></trkpt>
   <trkpt lat="59.0613224192" lon="30.0068839942"><ele>70.529</ele><time>2026-04-20T20:36:26.000Z</time></trkpt>
   <trkpt lat="59.061330382" lon="30.006937806"><ele>71.129</ele><time>2026-04-20T20:36:27.000Z</time></trkpt>
   <trkpt lat="59.0613232574" lon="30.0071635306"><ele>73.439</ele><time>2026-04-20T20:36:43.000Z</time></trkpt>
   <trkpt lat="59.0613086728" lon="30.0071132392"><ele>81.389</ele><time>2026-04-20T20:37:11.000Z</time></trkpt>
   <trkpt lat="59.0613223354" lon="30.0070175179"><ele>79.109</ele><time>2026-04-20T20:37:29.000Z</time></trkpt>
   <trkpt lat="59.061363742" lon="30.006964209"><ele>76.329</ele><time>2026-04-20T20:37:52.000Z</time></trkpt>
   <trkpt lat="59.061376231" lon="30.0069045298"><ele>79.049</ele><time>2026-04-20T20:38:21.000Z</time></trkpt>
   <trkpt lat="59.0613675138" lon="30.0069256522"><ele>80.029</ele><time>2026-04-20T20:38:51.000Z</time></trkpt>
   <trkpt lat="59.0613360817" lon="30.0067847524"><ele>81.349</ele><time>2026-04-20T20:39:17.000Z</time></trkpt>
   <trkpt lat="59.0613191502" lon="30.0067120813"><ele>81.589</ele><time>2026-04-20T20:39:21.000Z</time></trkpt>
   <trkpt lat="59.0612148794" lon="30.0065384921"><ele>81.569</ele><time>2026-04-20T20:39:34.000Z</time></trkpt>
   <trkpt lat="59.0612263626" lon="30.0065198843"><ele>83.349</ele><time>2026-04-20T20:39:55.000Z</time></trkpt>
   <trkpt lat="59.0612361694" lon="30.0065144361"><ele>82.299</ele><time>2026-04-20T20:40:21.000Z</time></trkpt>
   <trkpt lat="59.0612306373" lon="30.0064618815"><ele>81.989</ele><time>2026-04-20T20:40:56.000Z</time></trkpt>
   <trkpt lat="59.0612211658" lon="30.0063623045"><ele>80.839</ele><time>2026-04-20T20:41:32.000Z</time></trkpt>
   <trkpt lat="59.0612155499" lon="30.0062896334"><ele>80.259</ele><time>2026-04-20T20:41:57.000Z</time></trkpt>
   <trkpt lat="59.0612416176" lon="30.0060846121"><ele>81.019</ele><time>2026-04-20T20:42:13.000Z</time></trkpt>
   <trkpt lat="59.0612901488" lon="30.0058821053"><ele>80.729</ele><time>2026-04-20T20:42:34.000Z</time></trkpt>
   <trkpt lat="59.0612947589" lon="30.0057243579"><ele>81.259</ele><time>2026-04-20T20:42:48.000Z</time></trkpt>
   <trkpt lat="59.0612984469" lon="30.0054965377"><ele>82.849</ele><time>2026-04-20T20:43:02.000Z</time></trkpt>
   <trkpt lat="59.0613041466" lon="30.0054185022"><ele>82.749</ele><time>2026-04-20T20:43:06.000Z</time></trkpt>
   <trkpt lat="59.061310014" lon="30.0053354376"><ele>82.249</ele><time>2026-04-20T20:43:22.000Z</time></trkpt>
   <trkpt lat="59.0613805896" lon="30.0054330029"><ele>81.219</ele><time>2026-04-20T20:43:41.000Z</time></trkpt>
   <trkpt lat="59.061454015" lon="30.0054237828"><ele>80.869</ele><time>2026-04-20T20:44:09.000Z</time></trkpt>
   <trkpt lat="59.061483687" lon="30.005406097"><ele>84.469</ele><time>2026-04-20T20:45:00.000Z</time></trkpt>
   <trkpt lat="59.0614421127" lon="30.0053525366"><ele>81.739</ele><time>2026-04-20T20:45:46.000Z</time></trkpt>
   <trkpt lat="59.0614500756" lon="30.0053525366"><ele>78.099</ele><time>2026-04-20T20:46:45.000Z</time></trkpt>
   <trkpt lat="59.0614923203" lon="30.0054335896"><ele>79.569</ele><time>2026-04-20T20:47:42.000Z</time></trkpt>
   <trkpt lat="59.0615242554" lon="30.0053855613"><ele>79.509</ele><time>2026-04-20T20:48:07.000Z</time></trkpt>
   <trkpt lat="59.0615858624" lon="30.0052921869"><ele>79.339</ele><time>2026-04-20T20:48:28.000Z</time></trkpt>
   <trkpt lat="59.0616273528" lon="30.0053122197"><ele>76.299</ele><time>2026-04-20T20:48:47.000Z</time></trkpt>
   <trkpt lat="59.0616515765" lon="30.0053608347"><ele>76.279</ele><time>2026-04-20T20:49:11.000Z</time></trkpt>
   <trkpt lat="59.0617609603" lon="30.0053541292"><ele>76.599</ele><time>2026-04-20T20:49:32.000Z</time></trkpt>
   <trkpt lat="59.0618239923" lon="30.0053236191"><ele>76.809</ele><time>2026-04-20T20:49:52.000Z</time></trkpt>
   <trkpt lat="59.0618967472" lon="30.0053622596"><ele>74.589</ele><time>2026-04-20T20:50:19.000Z</time></trkpt>
   <trkpt lat="59.0619449431" lon="30.0052494392"><ele>72.849</ele><time>2026-04-20T20:50:54.000Z</time></trkpt>
   <trkpt lat="59.0620260799" lon="30.0052226171"><ele>73.459</ele><time>2026-04-20T20:51:16.000Z</time></trkpt>
   <trkpt lat="59.062043179" lon="30.005189341"><ele>74.669</ele><time>2026-04-20T20:52:14.000Z</time></trkpt>
   <trkpt lat="59.0621808099" lon="30.0052006565"><ele>75.069</ele><time>2026-04-20T20:52:54.000Z</time></trkpt>
   <trkpt lat="59.0622782914" lon="30.0052068592"><ele>75.059</ele><time>2026-04-20T20:53:14.000Z</time></trkpt>
   <trkpt lat="59.0624248909" lon="30.0053163268"><ele>75.239</ele><time>2026-04-20T20:53:35.000Z</time></trkpt>
   <trkpt lat="59.0625368731" lon="30.0053069391"><ele>78.319</ele><time>2026-04-20T20:54:07.000Z</time></trkpt>
   <trkpt lat="59.0625605101" lon="30.0053526205"><ele>78.819</ele><time>2026-04-20T20:55:16.000Z</time></trkpt>
   <trkpt lat="59.0625353644" lon="30.0053944461"><ele>79.989</ele><time>2026-04-20T20:56:00.000Z</time></trkpt>
   <trkpt lat="59.0626024196" lon="30.0053224456"><ele>78.359</ele><time>2026-04-20T20:56:39.000Z</time></trkpt>
   <trkpt lat="59.0625808781" lon="30.0053014908"><ele>80.669</ele><time>2026-04-20T20:57:15.000Z</time></trkpt>
   <trkpt lat="59.0626683852" lon="30.0053133931"><ele>81.499</ele><time>2026-04-20T20:57:58.000Z</time></trkpt>
   <trkpt lat="59.0627122225" lon="30.0052835536"><ele>81.279</ele><time>2026-04-20T20:58:25.000Z</time></trkpt>
   <trkpt lat="59.0627316686" lon="30.0052623474"><ele>81.029</ele><time>2026-04-20T20:58:30.000Z</time></trkpt>
   <trkpt lat="59.062793527" lon="30.005178193"><ele>77.909</ele><time>2026-04-20T20:58:49.000Z</time></trkpt>
   <trkpt lat="59.0629693793" lon="30.005062439"><ele>77.499</ele><time>2026-04-20T20:59:03.000Z</time></trkpt>
   <trkpt lat="59.0631558767" lon="30.0048853294"><ele>78.469</ele><time>2026-04-20T20:59:39.000Z</time></trkpt>
   <trkpt lat="59.0633961858" lon="30.004921623"><ele>78.039</ele><time>2026-04-20T20:59:55.000Z</time></trkpt>
   <trkpt lat="59.0635792466" lon="30.0049903546"><ele>77.879</ele><time>2026-04-20T21:00:13.000Z</time></trkpt>
   <trkpt lat="59.0637367426" lon="30.0049983174"><ele>80.349</ele><time>2026-04-20T21:00:43.000Z</time></trkpt>
   <trkpt lat="59.0637708569" lon="30.004995719"><ele>83.869</ele><time>2026-04-20T21:01:28.000Z</time></trkpt>
   <trkpt lat="59.0637450406" lon="30.0049970601"><ele>81.649</ele><time>2026-04-20T21:02:08.000Z</time></trkpt>
   <trkpt lat="59.0637826754" lon="30.0049588386"><ele>80.999</ele><time>2026-04-20T21:03:09.000Z</time></trkpt>
   <trkpt lat="59.063942183" lon="30.0049600121"><ele>81.429</ele><time>2026-04-20T21:03:45.000Z</time></trkpt>
   <trkpt lat="59.0640344678" lon="30.0050992355"><ele>80.739</ele><time>2026-04-20T21:04:07.000Z</time></trkpt>
   <trkpt lat="59.0640940631" lon="30.0051649496"><ele>79.459</ele><time>2026-04-20T21:04:29.000Z</time></trkpt>
   <trkpt lat="59.0641557539" lon="30.0052832183"><ele>76.359</ele><time>2026-04-20T21:04:50.000Z</time></trkpt>
   <trkpt lat="59.0641948136" lon="30.0049776141"><ele>75.489</ele><time>2026-04-20T21:05:15.000Z</time></trkpt>
   <trkpt lat="59.0641986692" lon="30.0050274026"><ele>73.419</ele><time>2026-04-20T21:05:41.000Z</time></trkpt>
   <trkpt lat="59.0642641319" lon="30.0049756024"><ele>73.379</ele><time>2026-04-20T21:06:04.000Z</time></trkpt>
   <trkpt lat="59.0642843323" lon="30.0049302564"><ele>75.109</ele><time>2026-04-20T21:06:28.000Z</time></trkpt>
   <trkpt lat="59.0642471166" lon="30.0049346988"><ele>75.199</ele><time>2026-04-20T21:06:58.000Z</time></trkpt>
   <trkpt lat="59.0642209651" lon="30.0050491117"><ele>74.309</ele><time>2026-04-20T21:07:17.000Z</time></trkpt>
   <trkpt lat="59.0641766248" lon="30.0051076174"><ele>75.989</ele><time>2026-04-20T21:07:43.000Z</time></trkpt>
   <trkpt lat="59.0641680753" lon="30.0052080326"><ele>75.689</ele><time>2026-04-20T21:08:19.000Z</time></trkpt>
   <trkpt lat="59.0641512277" lon="30.0050376285"><ele>75.509</ele><time>2026-04-20T21:08:52.000Z</time></trkpt>
   <trkpt lat="59.0640893692" lon="30.004908631"><ele>74.849</ele><time>2026-04-20T21:09:07.000Z</time></trkpt>
   <trkpt lat="59.0640804844" lon="30.0048811384"><ele>74.699</ele><time>2026-04-20T21:09:28.000Z</time></trkpt>
   <trkpt lat="59.0640664866" lon="30.0047725928"><ele>74.589</ele><time>2026-04-20T21:09:56.000Z</time></trkpt>
   <trkpt lat="59.0640384911" lon="30.0046710879"><ele>75.149</ele><time>2026-04-20T21:10:17.000Z</time></trkpt>
   <trkpt lat="59.0640133454" lon="30.0045387377"><ele>76.689</ele><time>2026-04-20T21:10:45.000Z</time></trkpt>
   <trkpt lat="59.0640143512" lon="30.0044251629"><ele>76.249</ele><time>2026-04-20T21:11:02.000Z</time></trkpt>
   <trkpt lat="59.063983422" lon="30.0044039567"><ele>76.709</ele><time>2026-04-20T21:11:31.000Z</time></trkpt>
   <trkpt lat="59.0639487209" lon="30.0043622986"><ele>74.169</ele><time>2026-04-20T21:11:52.000Z</time></trkpt>
   <trkpt lat="59.0639169535" lon="30.0043465406"><ele>75.139</ele><time>2026-04-20T21:12:15.000Z</time></trkpt>
   <trkpt lat="59.0638929812" lon="30.0041948282"><ele>75.349</ele><time>2026-04-20T21:12:41.000Z</time></trkpt>
   <trkpt lat="59.0638992677" lon="30.0042208121"><ele>76.089</ele><time>2026-04-20T21:13:23.000Z</time></trkpt>
   <trkpt lat="59.0639294425" lon="30.0041946605"><ele>76.409</ele><time>2026-04-20T21:13:46.000Z</time></trkpt>
   <trkpt lat="59.063958863" lon="30.0041856081"><ele>76.729</ele><time>2026-04-20T21:14:21.000Z</time></trkpt>
   <trkpt lat="59.0640326237" lon="30.0041400105"><ele>74.199</ele><time>2026-04-20T21:14:41.000Z</time></trkpt>
   <trkpt lat="59.0640837534" lon="30.0041202292"><ele>75.329</ele><time>2026-04-20T21:15:02.000Z</time></trkpt>
   <trkpt lat="59.0640743656" lon="30.0041376636"><ele>75.429</ele><time>2026-04-20T21:15:32.000Z</time></trkpt>
   <trkpt lat="59.0640842563" lon="30.0041385856"><ele>72.209</ele><time>2026-04-20T21:15:53.000Z</time></trkpt>
   <trkpt lat="59.0640657323" lon="30.0042024557"><ele>72.679</ele><time>2026-04-20T21:16:22.000Z</time></trkpt>
   <trkpt lat="59.0640823284" lon="30.004163396"><ele>72.779</ele><time>2026-04-20T21:16:43.000Z</time></trkpt>
   <trkpt lat="59.0640959909" lon="30.0041255098"><ele>73.359</ele><time>2026-04-20T21:17:23.000Z</time></trkpt>
   <trkpt lat="59.0641032832" lon="30.0041317124"><ele>74.339</ele><time>2026-04-20T21:18:02.000Z</time></trkpt>
   <trkpt lat="59.0641119165" lon="30.0040812534"><ele>76.489</ele><time>2026-04-20T21:18:30.000Z</time></trkpt>
   <trkpt lat="59.0641113298" lon="30.0040529225"><ele>77.049</ele><time>2026-04-20T21:18:52.000Z</time></trkpt>
   <trkpt lat="59.0641073903" lon="30.0040361587"><ele>76.289</ele><time>2026-04-20T21:19:36.000Z</time></trkpt>
   <trkpt lat="59.0641253276" lon="30.0039696902"><ele>74.879</ele><time>2026-04-20T21:19:56.000Z</time></trkpt>
   <trkpt lat="59.0641443545" lon="30.0039618113"><ele>73.459</ele><time>2026-04-20T21:20:16.000Z</time></trkpt>
   <trkpt lat="59.0641449412" lon="30.0039776531"><ele>73.219</ele><time>2026-04-20T21:20:46.000Z</time></trkpt>
   <trkpt lat="59.064145528" lon="30.0039569498"><ele>72.729</ele><time>2026-04-20T21:21:17.000Z</time></trkpt>
   <trkpt lat="59.0641815702" lon="30.0039297924"><ele>71.989</ele><time>2026-04-20T21:21:35.000Z</time></trkpt>
   <trkpt lat="59.0642040337" lon="30.0039690197"><ele>71.589</ele><time>2026-04-20T21:22:05.000Z</time></trkpt>
   <trkpt lat="59.064207135" lon="30.0039204885"><ele>72.629</ele><time>2026-04-20T21:22:32.000Z</time></trkpt>
   <trkpt lat="59.0642263295" lon="30.0039245118"><ele>71.029</ele><time>2026-04-20T21:22:51.000Z</time></trkpt>
   <trkpt lat="59.0642012676" lon="30.003940605"><ele>70.279</ele><time>2026-04-20T21:23:03.000Z</time></trkpt>
   <trkpt lat="59.0641927181" lon="30.003955441"><ele>65.049</ele><time>2026-04-20T21:23:16.000Z</time></trkpt>
   <trkpt lat="59.0642376451" lon="30.0039689359"><ele>66.089</ele><time>2026-04-20T21:23:45.000Z</time></trkpt>
   <trkpt lat="59.0642476196" lon="30.0039875437"><ele>67.309</ele><time>2026-04-20T21:24:24.000Z</time></trkpt>
   <trkpt lat="59.064233035" lon="30.0040549342"><ele>69.059</ele><time>2026-04-20T21:24:45.000Z</time></trkpt>
   <trkpt lat="59.0642087275" lon="30.0040524196"><ele>67.999</ele><time>2026-04-20T21:25:06.000Z</time></trkpt>
   <trkpt lat="59.0641854258" lon="30.0040772301"><ele>68.919</ele><time>2026-04-20T21:25:34.000Z</time></trkpt>
   <trkpt lat="59.0641836656" lon="30.0041100033"><ele>68.969</ele><time>2026-04-20T21:25:51.000Z</time></trkpt>
   <trkpt lat="59.0641822407" lon="30.0041012023"><ele>69.219</ele><time>2026-04-20T21:26:13.000Z</time></trkpt>
   <trkpt lat="59.0641597772" lon="30.0040699378"><ele>69.419</ele><time>2026-04-20T21:26:43.000Z</time></trkpt>
   <trkpt lat="59.0641567597" lon="30.00407262"><ele>71.209</ele><time>2026-04-20T21:27:06.000Z</time></trkpt>
   <trkpt lat="59.0641476235" lon="30.0041188043"><ele>73.409</ele><time>2026-04-20T21:27:20.000Z</time></trkpt>
   <trkpt lat="59.0641656445" lon="30.0041113444"><ele>71.879</ele><time>2026-04-20T21:27:43.000Z</time></trkpt>
   <trkpt lat="59.0641338771" lon="30.0041777291"><ele>73.219</ele><time>2026-04-20T21:28:18.000Z</time></trkpt>
   <trkpt lat="59.064140415" lon="30.0041996059"><ele>72.649</ele><time>2026-04-20T21:28:27.000Z</time></trkpt>
   <trkpt lat="59.0641405827" lon="30.0041973427"><ele>67.519</ele><time>2026-04-20T21:28:41.000Z</time></trkpt>
   <trkpt lat="59.0641331228" lon="30.004195834"><ele>67.439</ele><time>2026-04-20T21:28:59.000Z</time></trkpt>
   <trkpt lat="59.0641387386" lon="30.0042374921"><ele>68.019</ele><time>2026-04-20T21:29:19.000Z</time></trkpt>
   <trkpt lat="59.0641445221" lon="30.0042674993"><ele>67.479</ele><time>2026-04-20T21:29:37.000Z</time></trkpt>
   <trkpt lat="59.0641576817" lon="30.0042860233"><ele>68.199</ele><time>2026-04-20T21:29:52.000Z</time></trkpt>
   <trkpt lat="59.0641361402" lon="30.0042804912"><ele>69.629</ele><time>2026-04-20T21:30:16.000Z</time></trkpt>
   <trkpt lat="59.0641120842" lon="30.0043377396"><ele>71.069</ele><time>2026-04-20T21:30:31.000Z</time></trkpt>
   <trkpt lat="59.0640860165" lon="30.0043747038"><ele>71.989</ele><time>2026-04-20T21:30:47.000Z</time></trkpt>
   <trkpt lat="59.0640835857" lon="30.0043430202"><ele>71.899</ele><time>2026-04-20T21:31:12.000Z</time></trkpt>
   <trkpt lat="59.0640625471" lon="30.0043606222"><ele>70.789</ele><time>2026-04-20T21:31:28.000Z</time></trkpt>
   <trkpt lat="59.0640171172" lon="30.0043809064"><ele>71.859</ele><time>2026-04-20T21:31:54.000Z</time></trkpt>
   <trkpt lat="59.0639921391" lon="30.0043690041"><ele>72.719</ele><time>2026-04-20T21:32:18.000Z</time></trkpt>
   <trkpt lat="59.0639385788" lon="30.0043646455"><ele>72.609</ele><time>2026-04-20T21:32:36.000Z</time></trkpt>
   <trkpt lat="59.0638493115" lon="30.004365819"><ele>73.789</ele><time>2026-04-20T21:33:03.000Z</time></trkpt>
   <trkpt lat="59.0638568552" lon="30.0043487199"><ele>74.409</ele><time>2026-04-20T21:33:28.000Z</time></trkpt>
   <trkpt lat="59.0638270157" lon="30.0042408448"><ele>75.329</ele><time>2026-04-20T21:33:52.000Z</time></trkpt>
   <trkpt lat="59.0637778139" lon="30.0041571934"><ele>74.109</ele><time>2026-04-20T21:34:08.000Z</time></trkpt>
   <trkpt lat="59.0637109263" lon="30.0040524196"><ele>76.089</ele><time>2026-04-20T21:34:28.000Z</time></trkpt>
   <trkpt lat="59.063652253" lon="30.0040027149"><ele>77.039</ele><time>2026-04-20T21:34:46.000Z</time></trkpt>
   <trkpt lat="59.0636176357" lon="30.0039849453"><ele>76.339</ele><time>2026-04-20T21:35:11.000Z</time></trkpt>
   <trkpt lat="59.0635364151" lon="30.0039974343"><ele>79.489</ele><time>2026-04-20T21:35:51.000Z</time></trkpt>
   <trkpt lat="59.0634317251" lon="30.0041089975"><ele>79.479</ele><time>2026-04-20T21:36:34.000Z</time></trkpt>
   <trkpt lat="59.0634219183" lon="30.0039695226"><ele>78.949</ele><time>2026-04-20T21:36:58.000Z</time></trkpt>
   <trkpt lat="59.0633430446" lon="30.0038383458"><ele>80.169</ele><time>2026-04-20T21:37:30.000Z</time></trkpt>
   <trkpt lat="59.0633148814" lon="30.0037973583"><ele>81.489</ele><time>2026-04-20T21:37:58.000Z</time></trkpt>
   <trkpt lat="59.0632570462" lon="30.0037579634"><ele>79.099</ele><time>2026-04-20T21:38:24.000Z</time></trkpt>
   <trkpt lat="59.0632161426" lon="30.0037893955"><ele>79.629</ele><time>2026-04-20T21:38:53.000Z</time></trkpt>
   <trkpt lat="59.063152943" lon="30.0038453866"><ele>79.379</ele><time>2026-04-20T21:39:16.000Z</time></trkpt>
   <trkpt lat="59.0631166494" lon="30.0037722126"><ele>79.969</ele><time>2026-04-20T21:39:45.000Z</time></trkpt>
   <trkpt lat="59.0630549586" lon="30.0036756531"><ele>78.609</ele><time>2026-04-20T21:40:11.000Z</time></trkpt>
   <trkpt lat="59.0630815292" lon="30.003614549"><ele>81.879</ele><time>2026-04-20T21:40:31.000Z</time></trkpt>
   <trkpt lat="59.0630784279" lon="30.003736841"><ele>82.249</ele><time>2026-04-20T21:41:05.000Z</time></trkpt>
   <trkpt lat="59.0631446449" lon="30.0037852884"><ele>82.619</ele><time>2026-04-20T21:41:41.000Z</time></trkpt>
   <trkpt lat="59.0631157274" lon="30.0037539401"><ele>80.139</ele><time>2026-04-20T21:42:18.000Z</time></trkpt>
   <trkpt lat="59.063174736" lon="30.0038897269"><ele>81.119</ele><time>2026-04-20T21:42:50.000Z</time></trkpt>
   <trkpt lat="59.0632456469" lon="30.0037953467"><ele>78.709</ele><time>2026-04-20T21:43:37.000Z</time></trkpt>
   <trkpt lat="59.0631629175" lon="30.0040491507"><ele>79.549</ele><time>2026-04-20T21:44:07.000Z</time></trkpt>
   <trkpt lat="59.0631409569" lon="30.0040576164"><ele>80.069</ele><time>2026-04-20T21:44:48.000Z</time></trkpt>
   <trkpt lat="59.0629849697" lon="30.0040042237"><ele>80.329</ele><time>2026-04-20T21:45:23.000Z</time></trkpt>
   <trkpt lat="59.0628447404" lon="30.0040343147"><ele>80.169</ele><time>2026-04-20T21:45:45.000Z</time></trkpt>
   <trkpt lat="59.0628383702" lon="30.0040401821"><ele>78.319</ele><time>2026-04-20T21:45:51.000Z</time></trkpt>
   <trkpt lat="59.0627701415" lon="30.004101789"><ele>78.989</ele><time>2026-04-20T21:46:05.000Z</time></trkpt>
   <trkpt lat="59.0626880827" lon="30.0041892961"><ele>79.239</ele><time>2026-04-20T21:46:28.000Z</time></trkpt>
   <trkpt lat="59.0625995698" lon="30.0041268509"><ele>79.149</ele><time>2026-04-20T21:46:59.000Z</time></trkpt>
   <trkpt lat="59.062486917" lon="30.0042359833"><ele>79.089</ele><time>2026-04-20T21:47:14.000Z</time></trkpt>
   <trkpt lat="59.0623927882" lon="30.0045187049"><ele>79.179</ele><time>2026-04-20T21:47:52.000Z</time></trkpt>
   <trkpt lat="59.0622084702" lon="30.0048443418"><ele>78.229</ele><time>2026-04-20T21:48:31.000Z</time></trkpt>
   <trkpt lat="59.062234957" lon="30.0048999139"><ele>78.139</ele><time>2026-04-20T21:48:52.000Z</time></trkpt>
   <trkpt lat="59.0621977413" lon="30.0051646144"><ele>77.579</ele><time>2026-04-20T21:49:42.000Z</time></trkpt>
   <trkpt lat="59.0622237252" lon="30.0051807914"><ele>77.169</ele><time>2026-04-20T21:50:09.000Z</time></trkpt>
   <trkpt lat="59.0621994177" lon="30.0053070229"><ele>76.039</ele><time>2026-04-20T21:50:47.000Z</time></trkpt>
   <trkpt lat="59.0622415787" lon="30.0051194359"><ele>78.459</ele><time>2026-04-20T21:51:42.000Z</time></trkpt>
   <trkpt lat="59.0622832367" lon="30.0051144068"><ele>78.289</ele><time>2026-04-20T21:52:29.000Z</time></trkpt>
   <trkpt lat="59.0622318557" lon="30.0051991478"><ele>77.069</ele><time>2026-04-20T21:53:06.000Z</time></trkpt>
   <trkpt lat="59.0622424169" lon="30.0052292388"><ele>76.599</ele><time>2026-04-20T21:53:37.000Z</time></trkpt>
   <trkpt lat="59.0622563308" lon="30.0053240382"><ele>77.609</ele><time>2026-04-20T21:54:14.000Z</time></trkpt>
   <trkpt lat="59.0622413272" lon="30.005413054"><ele>77.419</ele><time>2026-04-20T21:54:49.000Z</time></trkpt>
   <trkpt lat="59.0622493738" lon="30.0053949491"><ele>76.409</ele><time>2026-04-20T21:55:19.000Z</time></trkpt>
   <trkpt lat="59.0622781238" lon="30.005307442"><ele>78.859</ele><time>2026-04-20T21:56:11.000Z</time></trkpt>
   <trkpt lat="59.0622764474" lon="30.0052460026"><ele>80.629</ele><time>2026-04-20T21:56:49.000Z</time></trkpt>
   <trkpt lat="59.0622895232" lon="30.0052341003"><ele>80.109</ele><time>2026-04-20T21:57:29.000Z</time></trkpt>
   <trkpt lat="59.0623163452" lon="30.0052581564"><ele>79.629</ele><time>2026-04-20T21:58:05.000Z</time></trkpt>
   <trkpt lat="59.062365547" lon="30.0052924384"><ele>78.969</ele><time>2026-04-20T21:58:33.000Z</time></trkpt>
   <trkpt lat="59.0624404812" lon="30.0053573981"><ele>79.279</ele><time>2026-04-20T21:58:55.000Z</time></trkpt>
   <trkpt lat="59.062641144" lon="30.005342646"><ele>79.739</ele><time>2026-04-20T21:59:32.000Z</time></trkpt>
   <trkpt lat="59.0628738256" lon="30.0055079371"><ele>79.949</ele><time>2026-04-20T21:59:51.000Z</time></trkpt>
   <trkpt lat="59.0629937707" lon="30.0054923468"><ele>79.669</ele><time>2026-04-20T22:00:09.000Z</time></trkpt>
   <trkpt lat="59.0631090218" lon="30.0055044167"><ele>80.299</ele><time>2026-04-20T22:00:44.000Z</time></trkpt>
   <trkpt lat="59.0632935913" lon="30.0054795225"><ele>79.999</ele><time>2026-04-20T22:01:01.000Z</time></trkpt>
   <trkpt lat="59.0633370096" lon="30.0054697156"><ele>85.089</ele><time>2026-04-20T22:01:36.000Z</time></trkpt>
   <trkpt lat="59.0633777456" lon="30.0054395408"><ele>86.739</ele><time>2026-04-20T22:02:01.000Z</time></trkpt>
   <trkpt lat="59.0634663424" lon="30.0056903273"><ele>83.509</ele><time>2026-04-20T22:02:49.000Z</time></trkpt>
   <trkpt lat="59.0634444656" lon="30.0058105238"><ele>78.809</ele><time>2026-04-20T22:03:31.000Z</time></trkpt>
   <trkpt lat="59.0634639116" lon="30.0058404472"><ele>78.269</ele><time>2026-04-20T22:04:04.000Z</time></trkpt>
   <trkpt lat="59.0635209924" lon="30.0061813392"><ele>80.689</ele><time>2026-04-20T22:04:41.000Z</time></trkpt>
   <trkpt lat="59.0635659194" lon="30.0064250011"><ele>81.999</ele><time>2026-04-20T22:05:04.000Z</time></trkpt>
   <trkpt lat="59.0636264367" lon="30.0066018593"><ele>82.769</ele><time>2026-04-20T22:05:28.000Z</time></trkpt>
   <trkpt lat="59.0637258461" lon="30.0067976606"><ele>82.429</ele><time>2026-04-20T22:05:57.000Z</time></trkpt>
   <trkpt lat="59.0639295263" lon="30.0067156017"><ele>82.269</ele><time>2026-04-20T22:06:19.000Z</time></trkpt>
   <trkpt lat="59.064016279" lon="30.0068179448"><ele>82.669</ele><time>2026-04-20T22:06:39.000Z</time></trkpt>
   <trkpt lat="59.0640692527" lon="30.0069204554"><ele>84.609</ele><time>2026-04-20T22:06:53.000Z</time></trkpt>
   <trkpt lat="59.0640693365" lon="30.0068795518"><ele>83.319</ele><time>2026-04-20T22:07:29.000Z</time></trkpt>
   <trkpt lat="59.064089956" lon="30.006948451"><ele>82.229</ele><time>2026-04-20T22:07:45.000Z</time></trkpt>
   <trkpt lat="59.064191377" lon="30.0068694935"><ele>81.859</ele><time>2026-04-20T22:08:11.000Z</time></trkpt>
   <trkpt lat="59.0642030278" lon="30.0069989101"><ele>80.269</ele><time>2026-04-20T22:08:25.000Z</time></trkpt>
   <trkpt lat="59.0641730206" lon="30.0071930349"><ele>80.149</ele><time>2026-04-20T22:08:46.000Z</time></trkpt>
   <trkpt lat="59.0641671533" lon="30.0072590843"><ele>80.309</ele><time>2026-04-20T22:09:08.000Z</time></trkpt>
   <trkpt lat="59.0643082207" lon="30.0072208629"><ele>80.199</ele><time>2026-04-20T22:09:35.000Z</time></trkpt>
   <trkpt lat="59.0644361286" lon="30.0070193619"><ele>79.749</ele><time>2026-04-20T22:10:00.000Z</time></trkpt>
   <trkpt lat="59.064483151" lon="30.0069934618"><ele>78.899</ele><time>2026-04-20T22:10:20.000Z</time></trkpt>
   <trkpt lat="59.0646785332" lon="30.0069435895"><ele>79.139</ele><time>2026-04-20T22:10:46.000Z</time></trkpt>
   <trkpt lat="59.0647386314" lon="30.0068619498"><ele>79.599</ele><time>2026-04-20T22:11:01.000Z</time></trkpt>
   <trkpt lat="59.0648082851" lon="30.0067435135"><ele>80.119</ele><time>2026-04-20T22:11:21.000Z</time></trkpt>
   <trkpt lat="59.0648618454" lon="30.0068858382"><ele>79.649</ele><time>2026-04-20T22:11:51.000Z</time></trkpt>
   <trkpt lat="59.0650271366" lon="30.0068585132"><ele>79.999</ele><time>2026-04-20T22:12:05.000Z</time></trkpt>
   <trkpt lat="59.0650740752" lon="30.0068682362"><ele>81.079</ele><time>2026-04-20T22:12:27.000Z</time></trkpt>
   <trkpt lat="59.0650813675" lon="30.0068491254"><ele>78.469</ele><time>2026-04-20T22:12:48.000Z</time></trkpt>
   <trkpt lat="59.065113554" lon="30.0069036916"><ele>81.189</ele><time>2026-04-20T22:13:15.000Z</time></trkpt>
   <trkpt lat="59.0651564693" lon="30.0069305975"><ele>82.359</ele><time>2026-04-20T22:13:38.000Z</time></trkpt>
   <trkpt lat="59.0652676134" lon="30.0068924599"><ele>84.849</ele><time>2026-04-20T22:14:25.000Z</time></trkpt>
   <trkpt lat="59.0653513486" lon="30.0069740996"><ele>83.419</ele><time>2026-04-20T22:14:41.000Z</time></trkpt>
   <trkpt lat="59.0654387718" lon="30.0070005864"><ele>83.089</ele><time>2026-04-20T22:15:11.000Z</time></trkpt>
   <trkpt lat="59.0655397738" lon="30.0070936256"><ele>83.029</ele><time>2026-04-20T22:15:28.000Z</time></trkpt>
   <trkpt lat="59.0656208268" lon="30.0070803822"><ele>82.939</ele><time>2026-04-20T22:15:56.000Z</time></trkpt>
   <trkpt lat="59.0656988623" lon="30.0069692381"><ele>82.489</ele><time>2026-04-20T22:16:13.000Z</time></trkpt>
   <trkpt lat="59.065709172" lon="30.0067673181"><ele>83.039</ele><time>2026-04-20T22:16:28.000Z</time></trkpt>
   <trkpt lat="59.065712441" lon="30.0065534957"><ele>83.119</ele><time>2026-04-20T22:16:48.000Z</time></trkpt>
   <trkpt lat="59.0658161251" lon="30.0065203034"><ele>85.149</ele><time>2026-04-20T22:17:14.000Z</time></trkpt>
   <trkpt lat="59.0658335595" lon="30.0064944871"><ele>83.649</ele><time>2026-04-20T22:17:41.000Z</time></trkpt>
   <trkpt lat="59.0658543466" lon="30.0063503184"><ele>83.929</ele><time>2026-04-20T22:17:57.000Z</time></trkpt>
   <trkpt lat="59.0658723677" lon="30.0062980153"><ele>83.719</ele><time>2026-04-20T22:18:13.000Z</time></trkpt>
   <trkpt lat="59.0659454579" lon="30.0062807486"><ele>84.179</ele><time>2026-04-20T22:18:35.000Z</time></trkpt>
   <trkpt lat="59.0660225714" lon="30.0061539304"><ele>84.969</ele><time>2026-04-20T22:19:00.000Z</time></trkpt>
   <trkpt lat="59.0661089888" lon="30.0059701153"><ele>85.159</ele><time>2026-04-20T22:19:27.000Z</time></trkpt>
   <trkpt lat="59.066173278" lon="30.0058199116"><ele>85.089</ele><time>2026-04-20T22:19:54.000Z</time></trkpt>
   <trkpt lat="59.0662630482" lon="30.0060592149"><ele>84.319</ele><time>2026-04-20T22:20:13.000Z</time></trkpt>
   <trkpt lat="59.0663962366" lon="30.005972546"><ele>85.259</ele><time>2026-04-20T22:20:34.000Z</time></trkpt>
   <trkpt lat="59.0663934706" lon="30.0058303051"><ele>85.229</ele><time>2026-04-20T22:20:52.000Z</time></trkpt>
   <trkpt lat="59.0664574245" lon="30.0057095219"><ele>85.549</ele><time>2026-04-20T22:21:12.000Z</time></trkpt>
   <trkpt lat="59.066506291" lon="30.0055675324"><ele>84.749</ele><time>2026-04-20T22:21:29.000Z</time></trkpt>
   <trkpt lat="59.0665630365" lon="30.0054389541"><ele>83.969</ele><time>2026-04-20T22:21:44.000Z</time></trkpt>
   <trkpt lat="59.0665446801" lon="30.0052900915"><ele>85.119</ele><time>2026-04-20T22:22:00.000Z</time></trkpt>
   <trkpt lat="59.0665529782" lon="30.0051315897"><ele>84.479</ele><time>2026-04-20T22:22:20.000Z</time></trkpt>
   <trkpt lat="59.0665705802" lon="30.0049551506"><ele>83.979</ele><time>2026-04-20T22:22:41.000Z</time></trkpt>
   <trkpt lat="59.0665805547" lon="30.0048036896"><ele>85.529</ele><time>2026-04-20T22:23:07.000Z</time></trkpt>
   <trkpt lat="59.0666127412" lon="30.0047926255"><ele>85.529</ele><time>2026-04-20T22:23:24.000Z</time></trkpt>
   <trkpt lat="59.0666603504" lon="30.0048879277"><ele>83.419</ele><time>2026-04-20T22:23:51.000Z</time></trkpt>
   <trkpt lat="59.0667645374" lon="30.0048577529"><ele>82.469</ele><time>2026-04-20T22:24:17.000Z</time></trkpt>
   <trkpt lat="59.0668375438" lon="30.0048942142"><ele>83.459</ele><time>2026-04-20T22:24:51.000Z</time></trkpt>
   <trkpt lat="59.0668975582" lon="30.0047637079"><ele>83.469</ele><time>2026-04-20T22:25:07.000Z</time></trkpt>
   <trkpt lat="59.0669901783" lon="30.0045593571"><ele>83.779</ele><time>2026-04-20T22:25:30.000Z</time></trkpt>
   <trkpt lat="59.0670345185" lon="30.0043606222"><ele>83.459</ele><time>2026-04-20T22:25:55.000Z</time></trkpt>
   <trkpt lat="59.0671133923" lon="30.0043253344"><ele>82.089</ele><time>2026-04-20T22:26:13.000Z</time></trkpt>
   <trkpt lat="59.0671086146" lon="30.0040245917"><ele>83.139</ele><time>2026-04-20T22:26:46.000Z</time></trkpt>
   <trkpt lat="59.067083888" lon="30.003921159"><ele>84.369</ele><time>2026-04-20T22:27:07.000Z</time></trkpt>
   <trkpt lat="59.0670615921" lon="30.0037434627"><ele>82.049</ele><time>2026-04-20T22:27:27.000Z</time></trkpt>
   <trkpt lat="59.0670882465" lon="30.0036350009"><ele>83.239</ele><time>2026-04-20T22:27:54.000Z</time></trkpt>
   <trkpt lat="59.0671309104" lon="30.0034502637"><ele>84.209</ele><time>2026-04-20T22:28:12.000Z</time></trkpt>
   <trkpt lat="59.0671593251" lon="30.0033680372"><ele>84.509</ele><time>2026-04-20T22:28:29.000Z</time></trkpt>
   <trkpt lat="59.0671699701" lon="30.0034070969"><ele>85.569</ele><time>2026-04-20T22:28:35.000Z</time></trkpt>
   <trkpt lat="59.0671198463" lon="30.0034920056"><ele>82.999</ele><time>2026-04-20T22:28:55.000Z</time></trkpt>
   <trkpt lat="59.0672018213" lon="30.0034446478"><ele>80.379</ele><time>2026-04-20T22:29:29.000Z</time></trkpt>
   <trkpt lat="59.0672207644" lon="30.0034647644"><ele>83.269</ele><time>2026-04-20T22:30:18.000Z</time></trkpt>
   <trkpt lat="59.0671872368" lon="30.0034956098"><ele>83.399</ele><time>2026-04-20T22:30:32.000Z</time></trkpt>
   <trkpt lat="59.0671663659" lon="30.0033915066"><ele>82.479</ele><time>2026-04-20T22:31:12.000Z</time></trkpt>
   <trkpt lat="59.067161672" lon="30.0034152274"><ele>82.969</ele><time>2026-04-20T22:32:03.000Z</time></trkpt>
   <trkpt lat="59.0671628455" lon="30.0033188355"><ele>85.399</ele><time>2026-04-20T22:32:51.000Z</time></trkpt>
   <trkpt lat="59.0671632646" lon="30.0032521993"><ele>85.799</ele><time>2026-04-20T22:33:31.000Z</time></trkpt>
   <trkpt lat="59.0671501888" lon="30.0031235371"><ele>84.819</ele><time>2026-04-20T22:33:59.000Z</time></trkpt>
   <trkpt lat="59.0671505241" lon="30.0029350281"><ele>85.989</ele><time>2026-04-20T22:34:22.000Z</time></trkpt>
   <trkpt lat="59.0671379512" lon="30.0027922005"><ele>86.089</ele><time>2026-04-20T22:34:55.000Z</time></trkpt>
   <trkpt lat="59.0670864863" lon="30.0024622888"><ele>88.709</ele><time>2026-04-20T22:35:43.000Z</time></trkpt>
   <trkpt lat="59.0670567306" lon="30.0022040423"><ele>89.049</ele><time>2026-04-20T22:36:25.000Z</time></trkpt>
   <trkpt lat="59.0670101272" lon="30.0020364043"><ele>88.079</ele><time>2026-04-20T22:36:46.000Z</time></trkpt>
   <trkpt lat="59.0669945369" lon="30.0019186385"><ele>88.869</ele><time>2026-04-20T22:37:05.000Z</time></trkpt>
   <trkpt lat="59.0669197703" lon="30.001764663"><ele>88.279</ele><time>2026-04-20T22:37:23.000Z</time></trkpt>
   <trkpt lat="59.0668970553" lon="30.0016012997"><ele>89.059</ele><time>2026-04-20T22:37:53.000Z</time></trkpt>
   <trkpt lat="59.0668806268" lon="30.0015069195"><ele>89.059</ele><time>2026-04-20T22:38:07.000Z</time></trkpt>
   <trkpt lat="59.0668785313" lon="30.0013120402"><ele>91.889</ele><time>2026-04-20T22:38:26.000Z</time></trkpt>
   <trkpt lat="59.0668406451" lon="30.001247751"><ele>91.949</ele><time>2026-04-20T22:39:04.000Z</time></trkpt>
   <trkpt lat="59.0668496138" lon="30.0011335057"><ele>90.789</ele><time>2026-04-20T22:39:49.000Z</time></trkpt>
   <trkpt lat="59.0668221211" lon="30.0011520297"><ele>92.399</ele><time>2026-04-20T22:40:35.000Z</time></trkpt>
   <trkpt lat="59.0667530542" lon="30.0010534585"><ele>93.349</ele><time>2026-04-20T22:41:04.000Z</time></trkpt>
   <trkpt lat="59.0667461811" lon="30.0009796139"><ele>92.689</ele><time>2026-04-20T22:41:36.000Z</time></trkpt>
   <trkpt lat="59.0666171836" lon="30.0007245526"><ele>91.749</ele><time>2026-04-20T22:42:22.000Z</time></trkpt>
   <trkpt lat="59.0665430876" lon="30.0006333575"><ele>91.619</ele><time>2026-04-20T22:42:53.000Z</time></trkpt>
   <trkpt lat="59.0664754456" lon="30.0005859998"><ele>88.829</ele><time>2026-04-20T22:43:47.000Z</time></trkpt>
   <trkpt lat="59.066451641" lon="30.00041174"><ele>89.679</ele><time>2026-04-20T22:44:05.000Z</time></trkpt>
   <trkpt lat="59.0664838275" lon="30.00023111"><ele>89.589</ele><time>2026-04-20T22:44:20.000Z</time></trkpt>
   <trkpt lat="59.0664256571" lon="30.000249634"><ele>87.759</ele><time>2026-04-20T22:45:08.000Z</time></trkpt>
   <trkpt lat="59.0663888605" lon="30.0001687486"><ele>89.579</ele><time>2026-04-20T22:45:51.000Z</time></trkpt>
   <trkpt lat="59.0663575122" lon="30.0001628813"><ele>88.069</ele><time>2026-04-20T22:46:20.000Z</time></trkpt>
   <trkpt lat="59.0663982483" lon="30.0001285993"><ele>87.719</ele><time>2026-04-20T22:46:47.000Z</time></trkpt>
   <trkpt lat="59.0663964881" lon="30.0000336323"><ele>89.099</ele><time>2026-04-20T22:47:08.000Z</time></trkpt>
   <trkpt lat="59.0664119108" lon="29.9998356518"><ele>88.619</ele><time>2026-04-20T22:47:30.000Z</time></trkpt>
   <trkpt lat="59.066390034" lon="29.9995471467"><ele>88.299</ele><time>2026-04-20T22:47:51.000Z</time></trkpt>
   <trkpt lat="59.0663521478" lon="29.9993836157"><ele>89.109</ele><time>2026-04-20T22:48:28.000Z</time></trkpt>
   <trkpt lat="59.0663541595" lon="29.9992012255"><ele>88.339</ele><time>2026-04-20T22:48:47.000Z</time></trkpt>
   <trkpt lat="59.0663765391" lon="29.9991925922"><ele>87.979</ele><time>2026-04-20T22:49:35.000Z</time></trkpt>
   <trkpt lat="59.0664121622" lon="29.9991788459"><ele>87.459</ele><time>2026-04-20T22:50:34.000Z</time></trkpt>
   <trkpt lat="59.0664292613" lon="29.999128303"><ele>85.769</ele><time>2026-04-20T22:51:20.000Z</time></trkpt>
   <trkpt lat="59.0664427562" lon="29.9990929313"><ele>85.459</ele><time>2026-04-20T22:51:50.000Z</time></trkpt>
   <trkpt lat="59.0664695783" lon="29.998989331"><ele>87.629</ele><time>2026-04-20T22:52:10.000Z</time></trkpt>
   <trkpt lat="59.0664161855" lon="29.9991021514"><ele>87.139</ele><time>2026-04-20T22:52:34.000Z</time></trkpt>
   <trkpt lat="59.0664933829" lon="29.9992889002"><ele>86.529</ele><time>2026-04-20T22:53:11.000Z</time></trkpt>
   <trkpt lat="59.0665675627" lon="29.9991542031"><ele>86.859</ele><time>2026-04-20T22:53:38.000Z</time></trkpt>
   <trkpt lat="59.06661886" lon="29.9991052527"><ele>86.249</ele><time>2026-04-20T22:54:03.000Z</time></trkpt>
   <trkpt lat="59.0667315127" lon="29.9989941087"><ele>86.539</ele><time>2026-04-20T22:54:31.000Z</time></trkpt>
   <trkpt lat="59.0667988194" lon="29.9989553005"><ele>88.029</ele><time>2026-04-20T22:55:02.000Z</time></trkpt>
   <trkpt lat="59.0668280723" lon="29.9988506943"><ele>88.379</ele><time>2026-04-20T22:55:28.000Z</time></trkpt>
   <trkpt lat="59.066851374" lon="29.9987825495"><ele>88.319</ele><time>2026-04-20T22:55:51.000Z</time></trkpt>
   <trkpt lat="59.0669123104" lon="29.9986082897"><ele>87.909</ele><time>2026-04-20T22:56:11.000Z</time></trkpt>
   <trkpt lat="59.0669109693" lon="29.9986491934"><ele>88.349</ele><time>2026-04-20T22:56:47.000Z</time></trkpt>
   <trkpt lat="59.066943072" lon="29.9985621054"><ele>89.299</ele><time>2026-04-20T22:57:22.000Z</time></trkpt>
   <trkpt lat="59.0669276493" lon="29.9986996524"><ele>91.519</ele><time>2026-04-20T22:57:56.000Z</time></trkpt>
   <trkpt lat="59.0669219496" lon="29.998641482"><ele>90.669</ele><time>2026-04-20T22:58:21.000Z</time></trkpt>
   <trkpt lat="59.0669475144" lon="29.9986116425"><ele>91.289</ele><time>2026-04-20T22:59:23.000Z</time></trkpt>
   <trkpt lat="59.0669352768" lon="29.9986148276"><ele>89.929</ele><time>2026-04-20T22:59:56.000Z</time></trkpt>
   <trkpt lat="59.0669892563" lon="29.9985348642"><ele>88.169</ele><time>2026-04-20T23:00:29.000Z</time></trkpt>
   <trkpt lat="59.0670281483" lon="29.9984965589"><ele>85.379</ele><time>2026-04-20T23:00:44.000Z</time></trkpt>
   <trkpt lat="59.0670575688" lon="29.9984637857"><ele>85.539</ele><time>2026-04-20T23:01:34.000Z</time></trkpt>
   <trkpt lat="59.0671162421" lon="29.9983536475"><ele>85.699</ele><time>2026-04-20T23:01:56.000Z</time></trkpt>
   <trkpt lat="59.0671558885" lon="29.9983499594"><ele>84.519</ele><time>2026-04-20T23:02:19.000Z</time></trkpt>
   <trkpt lat="59.0672063476" lon="29.9983215448"><ele>83.779</ele><time>2026-04-20T23:02:45.000Z</time></trkpt>
   <trkpt lat="59.067212634" lon="29.998275612"><ele>84.899</ele><time>2026-04-20T23:02:59.000Z</time></trkpt>
   <trkpt lat="59.0672316609" lon="29.9981985823"><ele>85.169</ele><time>2026-04-20T23:03:29.000Z</time></trkpt>
   <trkpt lat="59.0672396237" lon="29.9980138451"><ele>84.839</ele><time>2026-04-20T23:04:04.000Z</time></trkpt>
   <trkpt lat="59.0672804436" lon="29.9978451174"><ele>84.019</ele><time>2026-04-20T23:04:35.000Z</time></trkpt>
   <trkpt lat="59.0673047511" lon="29.9977259268"><ele>85.679</ele><time>2026-04-20T23:04:52.000Z</time></trkpt>
   <trkpt lat="59.0673772546" lon="29.9976435326"><ele>86.299</ele><time>2026-04-20T23:05:18.000Z</time></trkpt>
   <trkpt lat="59.0674074294" lon="29.9975818418"><ele>82.189</ele><time>2026-04-20T23:05:37.000Z</time></trkpt>
   <trkpt lat="59.0675528554" lon="29.9974742182"><ele>82.219</ele><time>2026-04-20T23:06:13.000Z</time></trkpt>
   <trkpt lat="59.0676289631" lon="29.9973087594"><ele>81.739</ele><time>2026-04-20T23:06:38.000Z</time></trkpt>
   <trkpt lat="59.0676694477" lon="29.9972255271"><ele>81.769</ele><time>2026-04-20T23:07:10.000Z</time></trkpt>
   <trkpt lat="59.067685541" lon="29.9972033989"><ele>83.689</ele><time>2026-04-20T23:07:44.000Z</time></trkpt>
   <trkpt lat="59.067729546" lon="29.9972145468"><ele>82.229</ele><time>2026-04-20T23:08:51.000Z</time></trkpt>
   <trkpt lat="59.0677140394" lon="29.9971552868"><ele>82.779</ele><time>2026-04-20T23:09:08.000Z</time></trkpt>
   <trkpt lat="59.067708675" lon="29.9969487567"><ele>90.489</ele><time>2026-04-20T23:09:41.000Z</time></trkpt>
   <trkpt lat="59.0678016303" lon="29.9970167339"><ele>87.589</ele><time>2026-04-20T23:10:15.000Z</time></trkpt>
   <trkpt lat="59.0678393489" lon="29.9968926818"><ele>87.209</ele><time>2026-04-20T23:10:40.000Z</time></trkpt>
   <trkpt lat="59.0678621477" lon="29.9967790232"><ele>84.859</ele><time>2026-04-20T23:11:03.000Z</time></trkpt>
   <trkpt lat="59.0678712839" lon="29.9966441583"><ele>84.069</ele><time>2026-04-20T23:11:29.000Z</time></trkpt>
   <trkpt lat="59.0678706134" lon="29.9965604231"><ele>84.709</ele><time>2026-04-20T23:11:49.000Z</time></trkpt>
   <trkpt lat="59.0678967649" lon="29.9964930326"><ele>84.659</ele><time>2026-04-20T23:12:17.000Z</time></trkpt>
   <trkpt lat="59.0678980222" lon="29.9964040168"><ele>86.289</ele><time>2026-04-20T23:12:55.000Z</time></trkpt>
   <trkpt lat="59.0679492356" lon="29.9964370415"><ele>86.499</ele><time>2026-04-20T23:13:21.000Z</time></trkpt>
   <trkpt lat="59.0679723697" lon="29.9962139152"><ele>86.799</ele><time>2026-04-20T23:14:04.000Z</time></trkpt>
   <trkpt lat="59.0679589586" lon="29.996158427"><ele>86.469</ele><time>2026-04-20T23:14:33.000Z</time></trkpt>
   <trkpt lat="59.0679764768" lon="29.9961024359"><ele>85.469</ele><time>2026-04-20T23:14:48.000Z</time></trkpt>
   <trkpt lat="59.0679971801" lon="29.9961482849"><ele>84.449</ele><time>2026-04-20T23:15:34.000Z</time></trkpt>
   <trkpt lat="59.0680547638" lon="29.9961516377"><ele>85.179</ele><time>2026-04-20T23:16:08.000Z</time></trkpt>
   <trkpt lat="59.0680987688" lon="29.9963418231"><ele>86.159</ele><time>2026-04-20T23:16:45.000Z</time></trkpt>
   <trkpt lat="59.0681305362" lon="29.9963642028"><ele>86.419</ele><time>2026-04-20T23:17:06.000Z</time></trkpt>
   <trkpt lat="59.0681608787" lon="29.9964424897"><ele>85.359</ele><time>2026-04-20T23:17:38.000Z</time></trkpt>
   <trkpt lat="59.0682276825" lon="29.9962859996"><ele>87.109</ele><time>2026-04-20T23:18:11.000Z</time></trkpt>
   <trkpt lat="59.0682262575" lon="29.9960655556"><ele>87.089</ele><time>2026-04-20T23:18:33.000Z</time></trkpt>
   <trkpt lat="59.0683152733" lon="29.995958351"><ele>85.589</ele><time>2026-04-20T23:19:15.000Z</time></trkpt>
   <trkpt lat="59.0683570152" lon="29.9959353008"><ele>85.309</ele><time>2026-04-20T23:19:40.000Z</time></trkpt>
   <trkpt lat="59.0683842564" lon="29.9958834168"><ele>88.559</ele><time>2026-04-20T23:20:35.000Z</time></trkpt>
   <trkpt lat="59.0683809875" lon="29.9958182894"><ele>92.019</ele><time>2026-04-20T23:21:29.000Z</time></trkpt>
   <trkpt lat="59.0683786405" lon="29.9957694229"><ele>90.789</ele><time>2026-04-20T23:21:54.000Z</time></trkpt>
   <trkpt lat="59.0684367271" lon="29.9957508989"><ele>93.919</ele><time>2026-04-20T23:22:28.000Z</time></trkpt>
   <trkpt lat="59.068464555" lon="29.9956814129"><ele>93.019</ele><time>2026-04-20T23:22:57.000Z</time></trkpt>
   <trkpt lat="59.0683574343" lon="29.9953522556"><ele>90.119</ele><time>2026-04-20T23:23:36.000Z</time></trkpt>
   <trkpt lat="59.0683553388" lon="29.9953769822"><ele>89.359</ele><time>2026-04-20T23:23:52.000Z</time></trkpt>
   <trkpt lat="59.0683954882" lon="29.9953677621"><ele>89.789</ele><time>2026-04-20T23:24:23.000Z</time></trkpt>
   <trkpt lat="59.068386771" lon="29.995254355"><ele>87.989</ele><time>2026-04-20T23:24:56.000Z</time></trkpt>
   <trkpt lat="59.068390459" lon="29.9952277005"><ele>85.939</ele><time>2026-04-20T23:25:19.000Z</time></trkpt>
   <trkpt lat="59.0683313666" lon="29.9950883933"><ele>85.089</ele><time>2026-04-20T23:25:52.000Z</time></trkpt>
   <trkpt lat="59.0682812428" lon="29.9950375151"><ele>83.139</ele><time>2026-04-20T23:26:33.000Z</time></trkpt>
   <trkpt lat="59.0682634732" lon="29.9949271255"><ele>82.109</ele><time>2026-04-20T23:26:59.000Z</time></trkpt>
   <trkpt lat="59.0682163669" lon="29.9947081063"><ele>82.649</ele><time>2026-04-20T23:27:15.000Z</time></trkpt>
   <trkpt lat="59.0682003575" lon="29.9946484272"><ele>82.709</ele><time>2026-04-20T23:27:32.000Z</time></trkpt>
   <trkpt lat="59.0682361482" lon="29.9945882451"><ele>81.379</ele><time>2026-04-20T23:28:00.000Z</time></trkpt>
   <trkpt lat="59.0682502298" lon="29.99443779"><ele>82.699</ele><time>2026-04-20T23:28:22.000Z</time></trkpt>
   <trkpt lat="59.0682445301" lon="29.9943795357"><ele>86.109</ele><time>2026-04-20T23:28:36.000Z</time></trkpt>
   <trkpt lat="59.0682561809" lon="29.9943382968"><ele>85.839</ele><time>2026-04-20T23:29:05.000Z</time></trkpt>
   <trkpt lat="59.068249224" lon="29.9941610195"><ele>86.009</ele><time>2026-04-20T23:29:33.000Z</time></trkpt>
   <trkpt lat="59.0681993516" lon="29.9940507975"><ele>86.409</ele><time>2026-04-20T23:29:47.000Z</time></trkpt>
   <trkpt lat="59.0681640638" lon="29.9938334547"><ele>87.699</ele><time>2026-04-20T23:30:13.000Z</time></trkpt>
   <trkpt lat="59.0681665784" lon="29.9937729374"><ele>87.469</ele><time>2026-04-20T23:30:37.000Z</time></trkpt>
   <trkpt lat="59.0680552667" lon="29.9936557584"><ele>87.299</ele><time>2026-04-20T23:31:08.000Z</time></trkpt>
   <trkpt lat="59.068049567" lon="29.9936855141"><ele>88.679</ele><time>2026-04-20T23:31:42.000Z</time></trkpt>
   <trkpt lat="59.068012519" lon="29.9936757911"><ele>95.589</ele><time>2026-04-20T23:32:46.000Z</time></trkpt>
   <trkpt lat="59.0679742137" lon="29.993559618"><ele>96.299</ele><time>2026-04-20T23:33:23.000Z</time></trkpt>
   <trkpt lat="59.0678943342" lon="29.9934659921"><ele>94.059</ele><time>2026-04-20T23:33:49.000Z</time></trkpt>
   <trkpt lat="59.0677157158" lon="29.9932917323"><ele>92.409</ele><time>2026-04-20T23:34:22.000Z</time></trkpt>
   <trkpt lat="59.0676359201" lon="29.993188132"><ele>91.719</ele><time>2026-04-20T23:34:48.000Z</time></trkpt>
   <trkpt lat="59.0674649293" lon="29.9930067476"><ele>93.389</ele><time>2026-04-20T23:35:18.000Z</time></trkpt>
   <trkpt lat="59.0673882349" lon="29.9931287881"><ele>95.349</ele><time>2026-04-20T23:35:47.000Z</time></trkpt>
   <trkpt lat="59.067371052" lon="29.9931113538"><ele>93.819</ele><time>2026-04-20T23:36:08.000Z</time></trkpt>
   <trkpt lat="59.0673252868" lon="29.9929674365"><ele>93.569</ele><time>2026-04-20T23:36:41.000Z</time></trkpt>
   <trkpt lat="59.0673186651" lon="29.9928721343"><ele>93.379</ele><time>2026-04-20T23:37:14.000Z</time></trkpt>
   <trkpt lat="59.0673775898" lon="29.9926366866"><ele>92.329</ele><time>2026-04-20T23:37:38.000Z</time></trkpt>
   <trkpt lat="59.0674094411" lon="29.9924173322"><ele>92.299</ele><time>2026-04-20T23:38:09.000Z</time></trkpt>
   <trkpt lat="59.0673883187" lon="29.9921341077"><ele>88.579</ele><time>2026-04-20T23:38:41.000Z</time></trkpt>
   <trkpt lat="59.0673577247" lon="29.9919193633"><ele>87.299</ele><time>2026-04-20T23:39:07.000Z</time></trkpt>
   <trkpt lat="59.0673107861" lon="29.9917527311"><ele>92.779</ele><time>2026-04-20T23:40:04.000Z</time></trkpt>
   <trkpt lat="59.0673084391" lon="29.9916840833"><ele>93.329</ele><time>2026-04-20T23:41:02.000Z</time></trkpt>
   <trkpt lat="59.0672752468" lon="29.9916149326"><ele>94.889</ele><time>2026-04-20T23:41:28.000Z</time></trkpt>
   <trkpt lat="59.0672677869" lon="29.9916342948"><ele>92.609</ele><time>2026-04-20T23:42:02.000Z</time></trkpt>
   <trkpt lat="59.0673111213" lon="29.991567994"><ele>93.199</ele><time>2026-04-20T23:42:52.000Z</time></trkpt>
   <trkpt lat="59.0673105346" lon="29.9915892002"><ele>93.219</ele><time>2026-04-20T23:43:26.000Z</time></trkpt>
   <trkpt lat="59.0673213473" lon="29.9917246517"><ele>90.179</ele><time>2026-04-20T23:43:56.000Z</time></trkpt>
   <trkpt lat="59.0673847145" lon="29.9917269148"><ele>89.069</ele><time>2026-04-20T23:44:53.000Z</time></trkpt>
   <trkpt lat="59.0674184097" lon="29.9916688282"><ele>88.699</ele><time>2026-04-20T23:45:26.000Z</time></trkpt>
   <trkpt lat="59.0673763326" lon="29.9916434311"><ele>88.219</ele><time>2026-04-20T23:46:10.000Z</time></trkpt>
   <trkpt lat="59.0673382787" lon="29.9915989232"><ele>86.499</ele><time>2026-04-20T23:46:46.000Z</time></trkpt>
   <trkpt lat="59.0673618319" lon="29.9916037009"><ele>86.389</ele><time>2026-04-20T23:47:24.000Z</time></trkpt>
   <trkpt lat="59.0673510192" lon="29.9915995099"><ele>86.909</ele><time>2026-04-20T23:48:09.000Z</time></trkpt>
   <trkpt lat="59.0673073495" lon="29.9916368932"><ele>87.259</ele><time>2026-04-20T23:48:35.000Z</time></trkpt>
   <trkpt lat="59.0672987161" lon="29.9916849215"><ele>87.829</ele><time>2026-04-20T23:48:57.000Z</time></trkpt>
   <trkpt lat="59.0672897475" lon="29.9916931358"><ele>87.109</ele><time>2026-04-20T23:49:35.000Z</time></trkpt>
   <trkpt lat="59.0672644341" lon="29.991748121"><ele>86.379</ele><time>2026-04-20T23:50:08.000Z</time></trkpt>
   <trkpt lat="59.0672901666" lon="29.9917406612"><ele>84.519</ele><time>2026-04-20T23:50:41.000Z</time></trkpt>
   <trkpt lat="59.0672872329" lon="29.9916858435"><ele>83.969</ele><time>2026-04-20T23:51:07.000Z</time></trkpt>
   <trkpt lat="59.0673249515" lon="29.9917303514"><ele>86.499</ele><time>2026-04-20T23:51:36.000Z</time></trkpt>
   <trkpt lat="59.0673690403" lon="29.9917573411"><ele>86.699</ele><time>2026-04-20T23:52:09.000Z</time></trkpt>
   <trkpt lat="59.0673545396" lon="29.99170135"><ele>88.029</ele><time>2026-04-20T23:52:40.000Z</time></trkpt>
   <trkpt lat="59.0673425535" lon="29.9916643858"><ele>90.649</ele><time>2026-04-20T23:53:08.000Z</time></trkpt>
   <trkpt lat="59.0672989676" lon="29.9915894516"><ele>88.289</ele><time>2026-04-20T23:53:39.000Z</time></trkpt>
   <trkpt lat="59.0672750792" lon="29.9915341311"><ele>90.559</ele><time>2026-04-20T23:54:27.000Z</time></trkpt>
   <trkpt lat="59.0672363548" lon="29.9914079834"><ele>92.069</ele><time>2026-04-20T23:54:48.000Z</time></trkpt>
   <trkpt lat="59.0672184175" lon="29.9911867012"><ele>92.089</ele><time>2026-04-20T23:55:02.000Z</time></trkpt>
   <trkpt lat="59.0671722332" lon="29.9908914067"><ele>91.299</ele><time>2026-04-20T23:55:20.000Z</time></trkpt>
   <trkpt lat="59.0670995621" lon="29.9906109482"><ele>90.259</ele><time>2026-04-20T23:55:36.000Z</time></trkpt>
   <trkpt lat="59.0670979696" lon="29.9904853873"><ele>88.099</ele><time>2026-04-20T23:55:53.000Z</time></trkpt>
   <trkpt lat="59.0669923576" lon="29.9903246224"><ele>86.289</ele><time>2026-04-20T23:56:13.000Z</time></trkpt>
   <trkpt lat="59.0670198502" lon="29.9902309966"><ele>85.139</ele><time>2026-04-20T23:56:44.000Z</time></trkpt>
   <trkpt lat="59.0669815449" lon="29.9900688906"><ele>83.329</ele><time>2026-04-20T23:57:07.000Z</time></trkpt>
   <trkpt lat="59.0668866618" lon="29.9898953014"><ele>81.259</ele><time>2026-04-20T23:57:29.000Z</time></trkpt>
   <trkpt lat="59.0668891763" lon="29.9898216244"><ele>81.349</ele><time>2026-04-20T23:57:53.000Z</time></trkpt>
   <trkpt lat="59.0668458419" lon="29.9896433413"><ele>80.699</ele><time>2026-04-20T23:58:13.000Z</time></trkpt>
   <trkpt lat="59.0668743404" lon="29.9895132542"><ele>80.969</ele><time>2026-04-20T23:58:36.000Z</time></trkpt>
   <trkpt lat="59.0668861589" lon="29.9894600291"><ele>82.559</ele><time>2026-04-20T23:58:57.000Z</time></trkpt>
   <trkpt lat="59.0669446645" lon="29.989347544"><ele>81.669</ele><time>2026-04-20T23:59:22.000Z</time></trkpt>
   <trkpt lat="59.0670290703" lon="29.9893476278"><ele>82.329</ele><time>2026-04-20T23:59:49.000Z</time></trkpt>
   <trkpt lat="59.0671240373" lon="29.9893663194"><ele>81.369</ele><time>2026-04-21T00:00:15.000Z</time></trkpt>
   <trkpt lat="59.0671299884" lon="29.9894817383"><ele>82.979</ele><time>2026-04-21T00:00:35.000Z</time></trkpt>
   <trkpt lat="59.0671758374" lon="29.989503615"><ele>85.599</ele><time>2026-04-21T00:01:19.000Z</time></trkpt>
   <trkpt lat="59.0671750831" lon="29.9895235639"><ele>84.449</ele><time>2026-04-21T00:02:01.000Z</time></trkpt>
   <trkpt lat="59.0671947805" lon="29.98952633"><ele>86.929</ele><time>2026-04-21T00:02:43.000Z</time></trkpt>
   <trkpt lat="59.0672477542" lon="29.9895051238"><ele>85.839</ele><time>2026-04-21T00:03:26.000Z</time></trkpt>
   <trkpt lat="59.0671819562" lon="29.9895160202"><ele>80.379</ele><time>2026-04-21T00:04:01.000Z</time></trkpt>
   <trkpt lat="59.0671879912" lon="29.989486935"><ele>77.709</ele><time>2026-04-21T00:05:00.000Z</time></trkpt>
   <trkpt lat="59.0671250431" lon="29.9894560896"><ele>80.289</ele><time>2026-04-21T00:06:01.000Z</time></trkpt>
   <trkpt lat="59.0671813695" lon="29.9894410022"><ele>80.279</ele><time>2026-04-21T00:06:58.000Z</time></trkpt>
   <trkpt lat="59.0672018213" lon="29.9895549123"><ele>81.869</ele><time>2026-04-21T00:07:46.000Z</time></trkpt>
   <trkpt lat="59.067217244" lon="29.9894829955"><ele>85.439</ele><time>2026-04-21T00:08:10.000Z</time></trkpt>
   <trkpt lat="59.0672209321" lon="29.9894145992"><ele>85.929</ele><time>2026-04-21T00:08:34.000Z</time></trkpt>
   <trkpt lat="59.0671965407" lon="29.9894063849"><ele>84.879</ele><time>2026-04-21T00:08:55.000Z</time></trkpt>
   <trkpt lat="59.067219591" lon="29.9895881884"><ele>84.879</ele><time>2026-04-21T00:09:09.000Z</time></trkpt>
   <trkpt lat="59.0672987161" lon="29.989504537"><ele>82.779</ele><time>2026-04-21T00:09:30.000Z</time></trkpt>
   <trkpt lat="59.0673759135" lon="29.9893973325"><ele>81.499</ele><time>2026-04-21T00:09:48.000Z</time></trkpt>
   <trkpt lat="59.067440035" lon="29.9894662317"><ele>82.119</ele><time>2026-04-21T00:10:04.000Z</time></trkpt>
   <trkpt lat="59.0674780889" lon="29.9895249889"><ele>81.479</ele><time>2026-04-21T00:10:27.000Z</time></trkpt>
   <trkpt lat="59.0675512629" lon="29.9894627113"><ele>80.449</ele><time>2026-04-21T00:10:48.000Z</time></trkpt>
   <trkpt lat="59.0675997103" lon="29.9894139287"><ele>79.799</ele><time>2026-04-21T00:11:11.000Z</time></trkpt>
   <trkpt lat="59.0676731357" lon="29.9893715162"><ele>78.369</ele><time>2026-04-21T00:11:30.000Z</time></trkpt>
   <trkpt lat="59.0677873811" lon="29.9893078976"><ele>79.239</ele><time>2026-04-21T00:11:46.000Z</time></trkpt>
   <trkpt lat="59.0678691885" lon="29.9893129267"><ele>76.329</ele><time>2026-04-21T00:12:19.000Z</time></trkpt>
   <trkpt lat="59.0679116847" lon="29.9892736156"><ele>77.829</ele><time>2026-04-21T00:12:42.000Z</time></trkpt>
   <trkpt lat="59.0679475593" lon="29.989266491"><ele>78.429</ele><time>2026-04-21T00:13:19.000Z</time></trkpt>
   <trkpt lat="59.0679164624" lon="29.9895691615"><ele>80.179</ele><time>2026-04-21T00:13:44.000Z</time></trkpt>
   <trkpt lat="59.0679201504" lon="29.9896056228"><ele>79.649</ele><time>2026-04-21T00:14:08.000Z</time></trkpt>
   <trkpt lat="59.0678047316" lon="29.9897023499"><ele>81.209</ele><time>2026-04-21T00:14:40.000Z</time></trkpt>
   <trkpt lat="59.0678029714" lon="29.9897103966"><ele>84.279</ele><time>2026-04-21T00:15:09.000Z</time></trkpt>
   <trkpt lat="59.0677543564" lon="29.9896878492"><ele>84.229</ele><time>2026-04-21T00:15:57.000Z</time></trkpt>
   <trkpt lat="59.0677441305" lon="29.9897228856"><ele>84.059</ele><time>2026-04-21T00:16:48.000Z</time></trkpt>
   <trkpt lat="59.0677806756" lon="29.9896575906"><ele>80.999</ele><time>2026-04-21T00:17:15.000Z</time></trkpt>
   <trkpt lat="59.067783274" lon="29.9896469456"><ele>82.219</ele><time>2026-04-21T00:17:56.000Z</time></trkpt>
   <trkpt lat="59.0678742176" lon="29.989689358"><ele>82.139</ele><time>2026-04-21T00:18:40.000Z</time></trkpt>
   <trkpt lat="59.0678688532" lon="29.9897670582"><ele>86.509</ele><time>2026-04-21T00:19:06.000Z</time></trkpt>
   <trkpt lat="59.0678769836" lon="29.9898051121"><ele>87.169</ele><time>2026-04-21T00:19:26.000Z</time></trkpt>
   <trkpt lat="59.0677697791" lon="29.9900543061"><ele>88.669</ele><time>2026-04-21T00:20:10.000Z</time></trkpt>
   <trkpt lat="59.0677787477" lon="29.9900494446"><ele>87.019</ele><time>2026-04-21T00:20:33.000Z</time></trkpt>
   <trkpt lat="59.0678447133" lon="29.9902920168"><ele>87.049</ele><time>2026-04-21T00:21:09.000Z</time></trkpt>
   <trkpt lat="59.067936579" lon="29.9903239519"><ele>87.329</ele><time>2026-04-21T00:21:38.000Z</time></trkpt>
   <trkpt lat="59.0679968448" lon="29.9903726507"><ele>89.559</ele><time>2026-04-21T00:22:27.000Z</time></trkpt>
   <trkpt lat="59.0680903869" lon="29.990383631"><ele>90.679</ele><time>2026-04-21T00:22:56.000Z</time></trkpt>
   <trkpt lat="59.0682600366" lon="29.9902376183"><ele>87.899</ele><time>2026-04-21T00:23:19.000Z</time></trkpt>
   <trkpt lat="59.0683528243" lon="29.990288245"><ele>89.879</ele><time>2026-04-21T00:23:36.000Z</time></trkpt>
   <trkpt lat="59.0683823286" lon="29.990225716"><ele>87.469</ele><time>2026-04-21T00:24:35.000Z</time></trkpt>
   <trkpt lat="59.068340922" lon="29.9903524504"><ele>90.869</ele><time>2026-04-21T00:25:46.000Z</time></trkpt>
   <trkpt lat="59.0683180394" lon="29.990352618"><ele>91.859</ele><time>2026-04-21T00:26:17.000Z</time></trkpt>
   <trkpt lat="59.0683430174" lon="29.9905708827"><ele>91.849</ele><time>2026-04-21T00:26:45.000Z</time></trkpt>
   <trkpt lat="59.0683401676" lon="29.9907385208"><ele>92.079</ele><time>2026-04-21T00:27:12.000Z</time></trkpt>
   <trkpt lat="59.0685276708" lon="29.991957501"><ele>106.509</ele><time>2026-04-21T00:31:03.000Z</time></trkpt>
   <trkpt lat="59.0684823247" lon="29.9918390647"><ele>103.629</ele><time>2026-04-21T00:31:22.000Z</time></trkpt>
   <trkpt lat="59.0685235636" lon="29.9918585107"><ele>101.479</ele><time>2026-04-21T00:31:41.000Z</time></trkpt>
   <trkpt lat="59.0685640482" lon="29.9919176031"><ele>99.639</ele><time>2026-04-21T00:31:54.000Z</time></trkpt>
   <trkpt lat="59.0685462786" lon="29.9920435831"><ele>96.259</ele><time>2026-04-21T00:32:10.000Z</time></trkpt>
   <trkpt lat="59.0685875176" lon="29.9922465928"><ele>96.639</ele><time>2026-04-21T00:32:30.000Z</time></trkpt>
   <trkpt lat="59.0685833266" lon="29.9924211041"><ele>94.719</ele><time>2026-04-21T00:32:46.000Z</time></trkpt>
   <trkpt lat="59.0685952289" lon="29.9925570585"><ele>95.419</ele><time>2026-04-21T00:33:00.000Z</time></trkpt>
   <trkpt lat="59.0686605239" lon="29.992482711"><ele>95.789</ele><time>2026-04-21T00:33:22.000Z</time></trkpt>
   <trkpt lat="59.0685772916" lon="29.992662419"><ele>90.039</ele><time>2026-04-21T00:34:16.000Z</time></trkpt>
   <trkpt lat="59.0685716758" lon="29.9925998062"><ele>86.849</ele><time>2026-04-21T00:34:54.000Z</time></trkpt>
   <trkpt lat="59.0686075503" lon="29.9926754948"><ele>84.689</ele><time>2026-04-21T00:35:44.000Z</time></trkpt>
   <trkpt lat="59.0686186144" lon="29.9926221859"><ele>84.279</ele><time>2026-04-21T00:36:33.000Z</time></trkpt>
   <trkpt lat="59.0686297624" lon="29.9926316575"><ele>86.779</ele><time>2026-04-21T00:37:11.000Z</time></trkpt>
   <trkpt lat="59.0686131662" lon="29.9926899955"><ele>87.639</ele><time>2026-04-21T00:37:44.000Z</time></trkpt>
   <trkpt lat="59.0686057901" lon="29.9928877246"><ele>86.819</ele><time>2026-04-21T00:38:05.000Z</time></trkpt>
   <trkpt lat="59.0686829874" lon="29.9930023052"><ele>85.809</ele><time>2026-04-21T00:38:29.000Z</time></trkpt>
   <trkpt lat="59.0686601887" lon="29.9933040537"><ele>86.959</ele><time>2026-04-21T00:39:06.000Z</time></trkpt>
   <trkpt lat="59.068731351" lon="29.9935238272"><ele>87.189</ele><time>2026-04-21T00:39:30.000Z</time></trkpt>
   <trkpt lat="59.0687509647" lon="29.9938402441"><ele>85.929</ele><time>2026-04-21T00:40:04.000Z</time></trkpt>
   <trkpt lat="59.06883185" lon="29.9941870872"><ele>86.739</ele><time>2026-04-21T00:40:26.000Z</time></trkpt>
   <trkpt lat="59.0688539783" lon="29.994365538"><ele>86.119</ele><time>2026-04-21T00:40:45.000Z</time></trkpt>
   <trkpt lat="59.0688873382" lon="29.9944978044"><ele>87.179</ele><time>2026-04-21T00:41:10.000Z</time></trkpt>
   <trkpt lat="59.0688882603" lon="29.9946661968"><ele>86.659</ele><time>2026-04-21T00:41:32.000Z</time></trkpt>
   <trkpt lat="59.0689158367" lon="29.9948748224"><ele>86.939</ele><time>2026-04-21T00:41:49.000Z</time></trkpt>
   <trkpt lat="59.0688990729" lon="29.9948715534"><ele>85.999</ele><time>2026-04-21T00:42:16.000Z</time></trkpt>
   <trkpt lat="59.0688970612" lon="29.9948687036"><ele>88.059</ele><time>2026-04-21T00:42:54.000Z</time></trkpt>
   <trkpt lat="59.0689260626" lon="29.9948934302"><ele>88.359</ele><time>2026-04-21T00:43:45.000Z</time></trkpt>
   <trkpt lat="59.0689391384" lon="29.9949917499"><ele>89.139</ele><time>2026-04-21T00:44:17.000Z</time></trkpt>
   <trkpt lat="59.0689662119" lon="29.9950754852"><ele>88.249</ele><time>2026-04-21T00:44:47.000Z</time></trkpt>
   <trkpt lat="59.0689594226" lon="29.995218229"><ele>87.429</ele><time>2026-04-21T00:45:19.000Z</time></trkpt>
   <trkpt lat="59.0690162519" lon="29.9956177943"><ele>89.239</ele><time>2026-04-21T00:46:03.000Z</time></trkpt>
   <trkpt lat="59.069029663" lon="29.9959094007"><ele>90.189</ele><time>2026-04-21T00:46:30.000Z</time></trkpt>
   <trkpt lat="59.069066711" lon="29.996118613"><ele>90.109</ele><time>2026-04-21T00:47:01.000Z</time></trkpt>
   <trkpt lat="59.0691206904" lon="29.9964940384"><ele>89.429</ele><time>2026-04-21T00:47:18.000Z</time></trkpt>
   <trkpt lat="59.069164444" lon="29.9967325874"><ele>88.859</ele><time>2026-04-21T00:47:41.000Z</time></trkpt>
   <trkpt lat="59.0691987259" lon="29.9969270476"><ele>87.909</ele><time>2026-04-21T00:48:00.000Z</time></trkpt>
   <trkpt lat="59.0692127237" lon="29.9971935921"><ele>86.279</ele><time>2026-04-21T00:48:25.000Z</time></trkpt>
   <trkpt lat="59.0692425633" lon="29.9973018025"><ele>86.919</ele><time>2026-04-21T00:49:10.000Z</time></trkpt>
   <trkpt lat="59.0692393782" lon="29.9972836975"><ele>87.209</ele><time>2026-04-21T00:49:56.000Z</time></trkpt>
   <trkpt lat="59.0692487659" lon="29.9972785008"><ele>88.889</ele><time>2026-04-21T00:50:46.000Z</time></trkpt>
   <trkpt lat="59.0692675414" lon="29.9973211647"><ele>87.919</ele><time>2026-04-21T00:51:10.000Z</time></trkpt>
   <trkpt lat="59.0692591595" lon="29.9973821849"><ele>87.539</ele><time>2026-04-21T00:51:29.000Z</time></trkpt>
   <trkpt lat="59.0692946149" lon="29.9977459595"><ele>87.619</ele><time>2026-04-21T00:51:45.000Z</time></trkpt>
   <trkpt lat="59.0693349319" lon="29.9978640605"><ele>87.609</ele><time>2026-04-21T00:52:02.000Z</time></trkpt>
   <trkpt lat="59.0693666155" lon="29.9980363086"><ele>85.839</ele><time>2026-04-21T00:52:33.000Z</time></trkpt>
   <trkpt lat="59.0693984667" lon="29.9981207144"><ele>84.939</ele><time>2026-04-21T00:52:54.000Z</time></trkpt>
   <trkpt lat="59.0694171583" lon="29.9984567449"><ele>84.509</ele><time>2026-04-21T00:53:16.000Z</time></trkpt>
   <trkpt lat="59.0694338383" lon="29.9986898456"><ele>85.369</ele><time>2026-04-21T00:53:35.000Z</time></trkpt>
   <trkpt lat="59.0694834592" lon="29.9989268858"><ele>84.909</ele><time>2026-04-21T00:54:00.000Z</time></trkpt>
   <trkpt lat="59.0695103651" lon="29.9992378544"><ele>84.999</ele><time>2026-04-21T00:54:30.000Z</time></trkpt>
   <trkpt lat="59.0695237761" lon="29.9993811012"><ele>85.019</ele><time>2026-04-21T00:54:49.000Z</time></trkpt>
   <trkpt lat="59.0695500115" lon="29.9995962646"><ele>85.309</ele><time>2026-04-21T00:55:11.000Z</time></trkpt>
   <trkpt lat="59.0695947709" lon="29.9997789063"><ele>87.199</ele><time>2026-04-21T00:55:34.000Z</time></trkpt>
   <trkpt lat="59.0695788453" lon="29.9998286948"><ele>87.849</ele><time>2026-04-21T00:56:04.000Z</time></trkpt>
   <trkpt lat="59.0695698766" lon="29.9998478055"><ele>86.609</ele><time>2026-04-21T00:56:36.000Z</time></trkpt>
   <trkpt lat="59.069572475" lon="29.9998113443"><ele>87.769</ele><time>2026-04-21T00:57:33.000Z</time></trkpt>
   <trkpt lat="59.0695356785" lon="29.9997622263"><ele>83.869</ele><time>2026-04-21T00:58:31.000Z</time></trkpt>
   <trkpt lat="59.0695506821" lon="29.9997861147"><ele>81.869</ele><time>2026-04-21T00:59:16.000Z</time></trkpt>
   <trkpt lat="59.0695321581" lon="29.9998758849"><ele>82.379</ele><time>2026-04-21T00:59:51.000Z</time></trkpt>
   <trkpt lat="59.0695251173" lon="30.0000384938"><ele>82.519</ele><time>2026-04-21T01:00:24.000Z</time></trkpt>
   <trkpt lat="59.0695427193" lon="30.0004175235"><ele>81.829</ele><time>2026-04-21T01:00:56.000Z</time></trkpt>
   <trkpt lat="59.0695007259" lon="30.0007023406"><ele>81.429</ele><time>2026-04-21T01:01:09.000Z</time></trkpt>
   <trkpt lat="59.0694953615" lon="30.0008418154"><ele>80.679</ele><time>2026-04-21T01:01:27.000Z</time></trkpt>
   <trkpt lat="59.0694031606" lon="30.001128728"><ele>80.859</ele><time>2026-04-21T01:02:10.000Z</time></trkpt>
   <trkpt lat="59.0694120454" lon="30.0011231121"><ele>80.919</ele><time>2026-04-21T01:03:10.000Z</time></trkpt>
   <trkpt lat="59.0693926832" lon="30.0011404627"><ele>80.709</ele><time>2026-04-21T01:03:45.000Z</time></trkpt>
   <trkpt lat="59.0693639333" lon="30.0013875612"><ele>80.669</ele><time>2026-04-21T01:04:12.000Z</time></trkpt>
   <trkpt lat="59.0693239516" lon="30.0016712886"><ele>83.139</ele><time>2026-04-21T01:04:37.000Z</time></trkpt>
   <trkpt lat="59.0693000632" lon="30.0019290321"><ele>83.539</ele><time>2026-04-21T01:04:53.000Z</time></trkpt>
   <trkpt lat="59.0693129713" lon="30.0020729494"><ele>83.409</ele><time>2026-04-21T01:05:23.000Z</time></trkpt>
   <trkpt lat="59.0692537112" lon="30.0022141006"><ele>82.449</ele><time>2026-04-21T01:05:46.000Z</time></trkpt>
   <trkpt lat="59.0692045095" lon="30.002468659"><ele>81.689</ele><time>2026-04-21T01:06:19.000Z</time></trkpt>
   <trkpt lat="59.0691564812" lon="30.0025145919"><ele>82.619</ele><time>2026-04-21T01:07:01.000Z</time></trkpt>
   <trkpt lat="59.069176933" lon="30.0024723471"><ele>79.699</ele><time>2026-04-21T01:08:09.000Z</time></trkpt>
   <trkpt lat="59.069160253" lon="30.0025093951"><ele>84.229</ele><time>2026-04-21T01:08:52.000Z</time></trkpt>
   <trkpt lat="59.0691667909" lon="30.0025753607"><ele>83.909</ele><time>2026-04-21T01:09:13.000Z</time></trkpt>
   <trkpt lat="59.0691481831" lon="30.0026497081"><ele>82.379</ele><time>2026-04-21T01:09:31.000Z</time></trkpt>
   <trkpt lat="59.0691634381" lon="30.0028243032"><ele>83.139</ele><time>2026-04-21T01:09:56.000Z</time></trkpt>
   <trkpt lat="59.0692101253" lon="30.0029831402"><ele>83.849</ele><time>2026-04-21T01:10:28.000Z</time></trkpt>
   <trkpt lat="59.0691603368" lon="30.0033311569"><ele>81.579</ele><time>2026-04-21T01:10:59.000Z</time></trkpt>
   <trkpt lat="59.0690925272" lon="30.0035130442"><ele>81.859</ele><time>2026-04-21T01:11:20.000Z</time></trkpt>
   <trkpt lat="59.069089845" lon="30.0037088454"><ele>82.749</ele><time>2026-04-21T01:11:45.000Z</time></trkpt>
   <trkpt lat="59.0690827204" lon="30.0038834405"><ele>80.749</ele><time>2026-04-21T01:12:10.000Z</time></trkpt>
   <trkpt lat="59.0690841453" lon="30.0041486439"><ele>80.299</ele><time>2026-04-21T01:12:27.000Z</time></trkpt>
   <trkpt lat="59.0690179283" lon="30.0043829181"><ele>80.269</ele><time>2026-04-21T01:12:55.000Z</time></trkpt>
   <trkpt lat="59.0689343607" lon="30.004400101"><ele>86.139</ele><time>2026-04-21T01:14:14.000Z</time></trkpt>
   <trkpt lat="59.0689697323" lon="30.0041457102"><ele>84.779</ele><time>2026-04-21T01:14:50.000Z</time></trkpt>
   <trkpt lat="59.0690098817" lon="30.0041395914"><ele>83.799</ele><time>2026-04-21T01:15:33.000Z</time></trkpt>
   <trkpt lat="59.0690448342" lon="30.0043037091"><ele>83.009</ele><time>2026-04-21T01:16:06.000Z</time></trkpt>
   <trkpt lat="59.0690264778" lon="30.0043481332"><ele>82.289</ele><time>2026-04-21T01:16:26.000Z</time></trkpt>
   <trkpt lat="59.0690316746" lon="30.0043483008"><ele>79.409</ele><time>2026-04-21T01:16:44.000Z</time></trkpt>
   <trkpt lat="59.0690164196" lon="30.004568661"><ele>76.979</ele><time>2026-04-21T01:17:08.000Z</time></trkpt>
   <trkpt lat="59.0689499511" lon="30.0049585034"><ele>76.009</ele><time>2026-04-21T01:17:27.000Z</time></trkpt>
   <trkpt lat="59.0689340254" lon="30.0050989002"><ele>76.499</ele><time>2026-04-21T01:17:53.000Z</time></trkpt>
   <trkpt lat="59.0689439161" lon="30.0052833021"><ele>75.769</ele><time>2026-04-21T01:18:26.000Z</time></trkpt>
   <trkpt lat="59.0689389708" lon="30.0056267087"><ele>76.819</ele><time>2026-04-21T01:18:48.000Z</time></trkpt>
   <trkpt lat="59.0688913616" lon="30.0059106876"><ele>76.749</ele><time>2026-04-21T01:19:21.000Z</time></trkpt>
   <trkpt lat="59.0688326882" lon="30.0060673453"><ele>78.499</ele><time>2026-04-21T01:19:39.000Z</time></trkpt>
   <trkpt lat="59.0688070396" lon="30.0060986937"><ele>78.099</ele><time>2026-04-21T01:20:44.000Z</time></trkpt>
   <trkpt lat="59.0688011723" lon="30.0061529246"><ele>76.729</ele><time>2026-04-21T01:21:43.000Z</time></trkpt>
   <trkpt lat="59.0687988253" lon="30.0062709418"><ele>77.299</ele><time>2026-04-21T01:22:26.000Z</time></trkpt>
   <trkpt lat="59.0687798822" lon="30.0065255002"><ele>77.899</ele><time>2026-04-21T01:22:45.000Z</time></trkpt>
   <trkpt lat="59.0687789602" lon="30.0067583494"><ele>77.889</ele><time>2026-04-21T01:23:01.000Z</time></trkpt>
   <trkpt lat="59.0687477796" lon="30.0069891032"><ele>78.139</ele><time>2026-04-21T01:23:23.000Z</time></trkpt>
   <trkpt lat="59.0687165151" lon="30.0072983116"><ele>78.149</ele><time>2026-04-21T01:23:58.000Z</time></trkpt>
   <trkpt lat="59.0686721748" lon="30.0076281395"><ele>78.239</ele><time>2026-04-21T01:24:29.000Z</time></trkpt>
   <trkpt lat="59.0686601887" lon="30.0078043271"><ele>78.799</ele><time>2026-04-21T01:24:50.000Z</time></trkpt>
   <trkpt lat="59.0685934687" lon="30.0079767429"><ele>78.499</ele><time>2026-04-21T01:25:10.000Z</time></trkpt>
   <trkpt lat="59.0685900321" lon="30.0081971869"><ele>80.259</ele><time>2026-04-21T01:25:41.000Z</time></trkpt>
   <trkpt lat="59.0685438478" lon="30.0083747156"><ele>79.179</ele><time>2026-04-21T01:26:32.000Z</time></trkpt>
   <trkpt lat="59.0685629586" lon="30.0084252585"><ele>80.369</ele><time>2026-04-21T01:27:45.000Z</time></trkpt>
   <trkpt lat="59.0685301853" lon="30.0084197265"><ele>80.859</ele><time>2026-04-21T01:28:17.000Z</time></trkpt>
   <trkpt lat="59.0684861804" lon="30.0085110892"><ele>80.649</ele><time>2026-04-21T01:28:31.000Z</time></trkpt>
   <trkpt lat="59.0684927182" lon="30.0086529948"><ele>81.149</ele><time>2026-04-21T01:28:50.000Z</time></trkpt>
   <trkpt lat="59.0684223103" lon="30.0089290947"><ele>81.809</ele><time>2026-04-21T01:29:27.000Z</time></trkpt>
   <trkpt lat="59.0683540816" lon="30.0092953001"><ele>82.559</ele><time>2026-04-21T01:30:00.000Z</time></trkpt>
   <trkpt lat="59.0683234876" lon="30.0095175043"><ele>81.189</ele><time>2026-04-21T01:30:25.000Z</time></trkpt>
   <trkpt lat="59.0682465417" lon="30.0097857252"><ele>81.989</ele><time>2026-04-21T01:30:52.000Z</time></trkpt>
   <trkpt lat="59.0682281854" lon="30.0101533555"><ele>81.509</ele><time>2026-04-21T01:31:22.000Z</time></trkpt>
   <trkpt lat="59.068128776" lon="30.01050791"><ele>81.369</ele><time>2026-04-21T01:31:52.000Z</time></trkpt>
   <trkpt lat="59.0681122637" lon="30.01050791"><ele>80.089</ele><time>2026-04-21T01:32:35.000Z</time></trkpt>
   <trkpt lat="59.0681211485" lon="30.0105146155"><ele>81.249</ele><time>2026-04-21T01:33:28.000Z</time></trkpt>
   <trkpt lat="59.0681257585" lon="30.0105061498"><ele>80.269</ele><time>2026-04-21T01:34:50.000Z</time></trkpt>
   <trkpt lat="59.068105642" lon="30.0104820937"><ele>81.939</ele><time>2026-04-21T01:35:45.000Z</time></trkpt>
   <trkpt lat="59.0681411812" lon="30.0104563613"><ele>83.599</ele><time>2026-04-21T01:36:38.000Z</time></trkpt>
   <trkpt lat="59.0681076536" lon="30.0103268609"><ele>84.139</ele><time>2026-04-21T01:37:24.000Z</time></trkpt>
   <trkpt lat="59.0678836892" lon="30.010257794"><ele>81.899</ele><time>2026-04-21T01:38:03.000Z</time></trkpt>
   <trkpt lat="59.0677728804" lon="30.0103265256"><ele>81.229</ele><time>2026-04-21T01:39:03.000Z</time></trkpt>
   <trkpt lat="59.0677717907" lon="30.010335159"><ele>82.299</ele><time>2026-04-21T01:39:42.000Z</time></trkpt>
   <trkpt lat="59.0677516742" lon="30.0103701953"><ele>85.269</ele><time>2026-04-21T01:40:23.000Z</time></trkpt>
   <trkpt lat="59.0677010475" lon="30.0102969375"><ele>87.239</ele><time>2026-04-21T01:40:55.000Z</time></trkpt>
   <trkpt lat="59.0675172323" lon="30.0100602326"><ele>86.769</ele><time>2026-04-21T01:41:18.000Z</time></trkpt>
   <trkpt lat="59.0673804397" lon="30.0097914249"><ele>86.119</ele><time>2026-04-21T01:41:51.000Z</time></trkpt>
   <trkpt lat="59.0672756659" lon="30.0096985534"><ele>86.509</ele><time>2026-04-21T01:42:16.000Z</time></trkpt>
   <trkpt lat="59.0671675393" lon="30.0094802049"><ele>86.749</ele><time>2026-04-21T01:42:45.000Z</time></trkpt>
   <trkpt lat="59.0670370331" lon="30.0092338607"><ele>86.959</ele><time>2026-04-21T01:43:18.000Z</time></trkpt>
   <trkpt lat="59.0668614322" lon="30.0090413284"><ele>86.899</ele><time>2026-04-21T01:43:43.000Z</time></trkpt>
   <trkpt lat="59.0667622743" lon="30.0089485407"><ele>86.549</ele><time>2026-04-21T01:44:00.000Z</time></trkpt>
   <trkpt lat="59.0666519685" lon="30.0087051303"><ele>85.689</ele><time>2026-04-21T01:44:30.000Z</time></trkpt>
   <trkpt lat="59.0665519724" lon="30.0085301161"><ele>84.429</ele><time>2026-04-21T01:45:02.000Z</time></trkpt>
   <trkpt lat="59.0663981645" lon="30.0084193912"><ele>84.199</ele><time>2026-04-21T01:45:25.000Z</time></trkpt>
   <trkpt lat="59.0663388206" lon="30.0083634839"><ele>84.199</ele><time>2026-04-21T01:45:45.000Z</time></trkpt>
   <trkpt lat="59.0662686641" lon="30.008298608"><ele>82.489</ele><time>2026-04-21T01:46:01.000Z</time></trkpt>
   <trkpt lat="59.0661891198" lon="30.0081962649"><ele>80.519</ele><time>2026-04-21T01:46:18.000Z</time></trkpt>
   <trkpt lat="59.0661030376" lon="30.0080860429"><ele>80.399</ele><time>2026-04-21T01:46:36.000Z</time></trkpt>
   <trkpt lat="59.066041263" lon="30.0079893157"><ele>77.159</ele><time>2026-04-21T01:47:04.000Z</time></trkpt>
   <trkpt lat="59.0659067335" lon="30.0080144614"><ele>77.189</ele><time>2026-04-21T01:47:16.000Z</time></trkpt>
   <trkpt lat="59.0658181368" lon="30.0081087579"><ele>77.229</ele><time>2026-04-21T01:47:33.000Z</time></trkpt>
   <trkpt lat="59.0656857865" lon="30.0081445486"><ele>76.479</ele><time>2026-04-21T01:47:47.000Z</time></trkpt>
   <trkpt lat="59.0655698648" lon="30.0082488195"><ele>77.199</ele><time>2026-04-21T01:48:00.000Z</time></trkpt>
   <trkpt lat="59.0653802661" lon="30.0082960096"><ele>78.319</ele><time>2026-04-21T01:48:15.000Z</time></trkpt>
   <trkpt lat="59.0652022345" lon="30.0083450437"><ele>79.419</ele><time>2026-04-21T01:48:43.000Z</time></trkpt>
   <trkpt lat="59.0649696367" lon="30.0085279368"><ele>78.599</ele><time>2026-04-21T01:49:00.000Z</time></trkpt>
   <trkpt lat="59.0648028368" lon="30.0086109177"><ele>79.259</ele><time>2026-04-21T01:49:17.000Z</time></trkpt>
   <trkpt lat="59.0646621885" lon="30.0086778891"><ele>79.959</ele><time>2026-04-21T01:49:35.000Z</time></trkpt>
   <trkpt lat="59.0644292554" lon="30.0088399951"><ele>81.499</ele><time>2026-04-21T01:49:56.000Z</time></trkpt>
   <trkpt lat="59.0642192887" lon="30.0090347067"><ele>83.319</ele><time>2026-04-21T01:50:09.000Z</time></trkpt>
   <trkpt lat="59.0641050434" lon="30.0091632851"><ele>83.069</ele><time>2026-04-21T01:50:24.000Z</time></trkpt>
   <trkpt lat="59.0640506448" lon="30.0092159234"><ele>82.499</ele><time>2026-04-21T01:50:31.000Z</time></trkpt>
   <trkpt lat="59.0639814103" lon="30.009218438"><ele>83.709</ele><time>2026-04-21T01:50:53.000Z</time></trkpt>
   <trkpt lat="59.0640191289" lon="30.0093295821"><ele>83.979</ele><time>2026-04-21T01:51:23.000Z</time></trkpt>
   <trkpt lat="59.0639420154" lon="30.0092672207"><ele>83.449</ele><time>2026-04-21T01:51:47.000Z</time></trkpt>
   <trkpt lat="59.0639137684" lon="30.0091527239"><ele>84.799</ele><time>2026-04-21T01:52:15.000Z</time></trkpt>
   <trkpt lat="59.0639358128" lon="30.0092210364"><ele>84.659</ele><time>2026-04-21T01:52:42.000Z</time></trkpt>
   <trkpt lat="59.0638711883" lon="30.0094268959"><ele>84.339</ele><time>2026-04-21T01:52:56.000Z</time></trkpt>
   <trkpt lat="59.0637412688" lon="30.0096168299"><ele>84.029</ele><time>2026-04-21T01:53:11.000Z</time></trkpt>
   <trkpt lat="59.0635806715" lon="30.009758987"><ele>83.379</ele><time>2026-04-21T01:53:25.000Z</time></trkpt>
   <trkpt lat="59.0634585472" lon="30.0098539539"><ele>82.939</ele><time>2026-04-21T01:53:38.000Z</time></trkpt>
   <trkpt lat="59.0632875564" lon="30.0100318179"><ele>83.349</ele><time>2026-04-21T01:53:54.000Z</time></trkpt>
   <trkpt lat="59.0630852172" lon="30.010135502"><ele>83.339</ele><time>2026-04-21T01:54:11.000Z</time></trkpt>
   <trkpt lat="59.0629445689" lon="30.010330046"><ele>82.849</ele><time>2026-04-21T01:54:27.000Z</time></trkpt>
   <trkpt lat="59.0628193433" lon="30.010525512"><ele>82.779</ele><time>2026-04-21T01:54:39.000Z</time></trkpt>
   <trkpt lat="59.0627362786" lon="30.0105727859"><ele>82.169</ele><time>2026-04-21T01:54:52.000Z</time></trkpt>
   <trkpt lat="59.0626246316" lon="30.0107205589"><ele>81.719</ele><time>2026-04-21T01:55:06.000Z</time></trkpt>
   <trkpt lat="59.0625130685" lon="30.0108103291"><ele>81.919</ele><time>2026-04-21T01:55:18.000Z</time></trkpt>
   <trkpt lat="59.0623844901" lon="30.0109068048"><ele>81.329</ele><time>2026-04-21T01:55:32.000Z</time></trkpt>
   <trkpt lat="59.0623041915" lon="30.0109781348"><ele>81.309</ele><time>2026-04-21T01:55:42.000Z</time></trkpt>
   <trkpt lat="59.0621934665" lon="30.0111770373"><ele>81.189</ele><time>2026-04-21T01:55:57.000Z</time></trkpt>
   <trkpt lat="59.062027421" lon="30.0112240598"><ele>80.639</ele><time>2026-04-21T01:56:11.000Z</time></trkpt>
   <trkpt lat="59.061897753" lon="30.011314752"><ele>79.659</ele><time>2026-04-21T01:56:25.000Z</time></trkpt>
   <trkpt lat="59.0617654866" lon="30.0113305938"><ele>78.869</ele><time>2026-04-21T01:56:39.000Z</time></trkpt>
   <trkpt lat="59.0617703481" lon="30.0113131594"><ele>78.949</ele><time>2026-04-21T01:56:44.000Z</time></trkpt>
   <trkpt lat="59.0617413467" lon="30.0109676574"><ele>78.109</ele><time>2026-04-21T01:57:01.000Z</time></trkpt>
   <trkpt lat="59.0617019517" lon="30.0105487299"><ele>77.529</ele><time>2026-04-21T01:57:16.000Z</time></trkpt>
   <trkpt lat="59.0616519118" lon="30.0101458118"><ele>76.769</ele><time>2026-04-21T01:57:33.000Z</time></trkpt>
   <trkpt lat="59.0616138579" lon="30.0097055942"><ele>77.169</ele><time>2026-04-21T01:57:48.000Z</time></trkpt>
   <trkpt lat="59.0615715293" lon="30.0092392251"><ele>77.609</ele><time>2026-04-21T01:58:05.000Z</time></trkpt>
   <trkpt lat="59.0615301227" lon="30.0088120833"><ele>78.329</ele><time>2026-04-21T01:58:21.000Z</time></trkpt>
   <trkpt lat="59.0614909792" lon="30.0083639868"><ele>78.149</ele><time>2026-04-21T01:58:39.000Z</time></trkpt>
   <trkpt lat="59.0614577869" lon="30.0078878109"><ele>78.299</ele><time>2026-04-21T01:58:56.000Z</time></trkpt>
   <trkpt lat="59.0614138657" lon="30.0074542989"><ele>79.029</ele><time>2026-04-21T01:59:11.000Z</time></trkpt>
   <trkpt lat="59.0613475649" lon="30.0071458448"><ele>80.989</ele><time>2026-04-21T01:59:24.000Z</time></trkpt>
   <trkpt lat="59.0612253567" lon="30.0066647236"><ele>81.489</ele><time>2026-04-21T01:59:46.000Z</time></trkpt>
   <trkpt lat="59.0610078463" lon="30.0065685831"><ele>81.579</ele><time>2026-04-21T02:00:04.000Z</time></trkpt>
   <trkpt lat="59.0608648511" lon="30.0065942318"><ele>80.749</ele><time>2026-04-21T02:00:22.000Z</time></trkpt>
   <trkpt lat="59.0608608278" lon="30.0065886159"><ele>80.219</ele><time>2026-04-21T02:00:46.000Z</time></trkpt>
   <trkpt lat="59.0608910864" lon="30.0065816589"><ele>80.479</ele><time>2026-04-21T02:01:18.000Z</time></trkpt>
   <trkpt lat="59.0608432258" lon="30.0065698404"><ele>78.679</ele><time>2026-04-21T02:01:50.000Z</time></trkpt>
   <trkpt lat="59.0608121289" lon="30.006595992"><ele>78.769</ele><time>2026-04-21T02:02:21.000Z</time></trkpt>
   <trkpt lat="59.0604247173" lon="30.0067674857"><ele>78.859</ele><time>2026-04-21T02:02:27.000Z</time></trkpt>
   <trkpt lat="59.058851937" lon="30.0073348567"><ele>78.429</ele><time>2026-04-21T02:02:39.000Z</time></trkpt>
   <trkpt lat="59.0561795348" lon="30.0081927445"><ele>79.359</ele><time>2026-04-21T02:02:58.000Z</time></trkpt>
   <trkpt lat="59.0544296449" lon="30.0087371491"><ele>78.119</ele><time>2026-04-21T02:03:10.000Z</time></trkpt>
   <trkpt lat="59.0525031483" lon="30.0093828071"><ele>80.749</ele><time>2026-04-21T02:03:22.000Z</time></trkpt>
   <trkpt lat="59.0510980899" lon="30.0098541216"><ele>82.499</ele><time>2026-04-21T02:03:32.000Z</time></trkpt>
   <trkpt lat="59.049285168" lon="30.0104581215"><ele>83.439</ele><time>2026-04-21T02:03:44.000Z</time></trkpt>
   <trkpt lat="59.0469148496" lon="30.0112404045"><ele>83.149</ele><time>2026-04-21T02:03:58.000Z</time></trkpt>
  </trkseg>
 </trk>
</gpx>